Observation data for Amarillo 7 South Southeast on 11/17/2019      Previous  Date       Current Mesonet Observations  Soil Data  Daily Summary Page  Observations in Plain Language
KAM1 170600Z 35007KT 07/01 A3001 RMK A01 T00730012  RH  065%=      5-min Rain = 0
KAM1 170601Z 35007KT 07/01 A3001 RMK A01 T00740012  RH  065%=      5-min Rain = 0
KAM1 170602Z 35007KT 07/01 A3001 RMK A01 T00740012  RH  065%=      5-min Rain = 0
KAM1 170603Z 35007KT 08/01 A3001 RMK A01 T00750012  RH  064%=      5-min Rain = 0
KAM1 170604Z 35006KT 08/01 A3001 RMK A01 T00750012  RH  064%=      5-min Rain = 0
KAM1 170605Z 35006KT 08/01 A3001 RMK A01 T00760012  RH  064%=      5-min Rain = 0
KAM1 170606Z 35007KT 08/01 A3001 RMK A01 T00760012  RH  064%=      5-min Rain = 0
KAM1 170607Z 35007KT 08/01 A3001 RMK A01 T00770012  RH  063%=      5-min Rain = 0
KAM1 170608Z 35007KT 08/01 A3001 RMK A01 T00790012  RH  063%=      5-min Rain = 0
KAM1 170609Z 35007KT 08/01 A3001 RMK A01 T00800012  RH  062%=      5-min Rain = 0
KAM1 170610Z 35008KT 08/01 A3001 RMK A01 T00810013  RH  062%=      5-min Rain = 0
KAM1 170611Z 35008KT 08/01 A3001 RMK A01 T00810013  RH  062%=      5-min Rain = 0
KAM1 170612Z 35008KT 08/01 A3001 RMK A01 T00820013  RH  062%=      5-min Rain = 0
KAM1 170613Z 35008KT 08/01 A3001 RMK A01 T00820013  RH  062%=      5-min Rain = 0
KAM1 170614Z 35007KT 08/01 A3001 RMK A01 T00830013  RH  061%=      5-min Rain = 0
KAM1 170615Z 35008KT 08/01 A3001 RMK A01 T00830013  RH  061%=      5-min Rain = 0
KAM1 170616Z 35008KT 08/01 A3001 RMK A01 T00830012  RH  061%=      5-min Rain = 0
KAM1 170617Z 35008KT 08/01 A3001 RMK A01 T00830012  RH  061%=      5-min Rain = 0
KAM1 170618Z 35008KT 08/01 A3001 RMK A01 T00840012  RH  061%=      5-min Rain = 0
KAM1 170619Z 35008KT 09/01 A3001 RMK A01 T00850012  RH  060%=      5-min Rain = 0
KAM1 170620Z 36008KT 09/01 A3001 RMK A01 T00850012  RH  060%=      5-min Rain = 0
KAM1 170621Z 35009KT 09/01 A3001 RMK A01 T00860012  RH  060%=      5-min Rain = 0
KAM1 170622Z 35010KT 09/01 A3001 RMK A01 T00860012  RH  060%=      5-min Rain = 0
KAM1 170623Z 35009KT 09/01 A3001 RMK A01 T00860012  RH  060%=      5-min Rain = 0
KAM1 170624Z 35011KT 09/01 A3001 RMK A01 T00860012  RH  060%=      5-min Rain = 0
KAM1 170625Z 35010KT 09/01 A3001 RMK A01 T00870012  RH  059%=      5-min Rain = 0
KAM1 170626Z 35010KT 09/01 A3001 RMK A01 T00880012  RH  059%=      5-min Rain = 0
KAM1 170627Z 35010KT 09/01 A3001 RMK A01 T00890012  RH  059%=      5-min Rain = 0
KAM1 170628Z 35010KT 09/01 A3001 RMK A01 T00900012  RH  058%=      5-min Rain = 0
KAM1 170629Z 35010KT 09/01 A3001 RMK A01 T00910012  RH  058%=      5-min Rain = 0
KAM1 170630Z 35011KT 09/01 A3001 RMK A01 T00920012  RH  057%=      5-min Rain = 0
KAM1 170631Z 35011KT 09/01 A3001 RMK A01 T00930012  RH  057%=      5-min Rain = 0
KAM1 170632Z 35011KT 09/01 A3001 RMK A01 T00940012  RH  057%=      5-min Rain = 0
KAM1 170633Z 35011KT 09/01 A3001 RMK A01 T00940011  RH  056%=      5-min Rain = 0
KAM1 170634Z 35011KT 09/01 A3001 RMK A01 T00940011  RH  056%=      5-min Rain = 0
KAM1 170635Z 34010KT 10/01 A3001 RMK A01 T00950011  RH  056%=      5-min Rain = 0
KAM1 170636Z 35011KT 10/01 A3001 RMK A01 T00960011  RH  055%=      5-min Rain = 0
KAM1 170637Z 34012KT 10/01 A3001 RMK A01 T00970010  RH  055%=      5-min Rain = 0
KAM1 170638Z 34013KT 10/01 A3001 RMK A01 T00980010  RH  054%=      5-min Rain = 0
KAM1 170639Z 35014KT 10/01 A3002 RMK A01 T01000010  RH  054%=      5-min Rain = 0
KAM1 170640Z 35014KT 10/01 A3002 RMK A01 T01020009  RH  053%=      5-min Rain = 0
KAM1 170641Z 35013KT 10/01 A3002 RMK A01 T01030008  RH  052%=      5-min Rain = 0
KAM1 170642Z 35015KT 11/01 A3002 RMK A01 T01050007  RH  051%=      5-min Rain = 0
KAM1 170643Z 35014KT 11/01 A3002 RMK A01 T01060006  RH  050%=      5-min Rain = 0
KAM1 170644Z 35016KT 11/01 A3002 RMK A01 T01070005  RH  049%=      5-min Rain = 0
KAM1 170645Z 35016KT 11/00 A3002 RMK A01 T01080004  RH  049%=      5-min Rain = 0
KAM1 170646Z 35014KT 11/00 A3002 RMK A01 T01080003  RH  048%=      5-min Rain = 0
KAM1 170647Z 35016KT 11/00 A3002 RMK A01 T01080003  RH  048%=      5-min Rain = 0
KAM1 170648Z 35015KT 11/00 A3002 RMK A01 T01080001  RH  048%=      5-min Rain = 0
KAM1 170649Z 35016KT 11/00 A3002 RMK A01 T010800-0  RH  047%=      5-min Rain = 0
KAM1 170650Z 35015KT 11/M00 A3002 RMK A01 T01081001  RH  047%=      5-min Rain = 0
KAM1 170651Z 35017KT 11/M00 A3002 RMK A01 T01081002  RH  046%=      5-min Rain = 0
KAM1 170652Z 35018KT 11/M00 A3002 RMK A01 T01081004  RH  046%=      5-min Rain = 0
KAM1 170653Z 35016KT 11/M01 A3002 RMK A01 T01081005  RH  046%=      5-min Rain = 0
KAM1 170654Z 36018KT 11/M01 A3003 RMK A01 T01081006  RH  045%=      5-min Rain = 0
KAM1 170655Z 35017KT 11/M01 A3002 RMK A01 T01081007  RH  045%=      5-min Rain = 0
KAM1 170656Z 35019KT 11/M01 A3002 RMK A01 T01071008  RH  045%=      5-min Rain = 0
KAM1 170657Z 00017KT 11/M01 A3002 RMK A01 T01071008  RH  045%=      5-min Rain = 0
KAM1 170658Z 36019G24KT 11/M01 A3003 RMK A01 T01061009  RH  045%=      5-min Rain = 0
KAM1 170659Z 36019KT 11/M01 A3002 RMK A01 T01061010  RH  044%=      5-min Rain = 0
KAM1 170700Z 35018KT 11/M01 A3003 RMK A01 T01061010  RH  044%=      5-min Rain = 0
KAM1 170701Z 36019G24KT 11/M01 A3003 RMK A01 T01061010  RH  044%=      5-min Rain = 0
KAM1 170702Z 36018KT 11/M01 A3003 RMK A01 T01061011  RH  044%=      5-min Rain = 0
KAM1 170703Z 00015KT 11/M01 A3003 RMK A01 T01061011  RH  044%=      5-min Rain = 0
KAM1 170704Z 00016KT 11/M01 A3003 RMK A01 T01061011  RH  044%=      5-min Rain = 0
KAM1 170705Z 36016G21KT 11/M01 A3003 RMK A01 T01051012  RH  044%=      5-min Rain = 0
KAM1 170706Z 00017KT 11/M01 A3003 RMK A01 T01051012  RH  044%=      5-min Rain = 0
KAM1 170707Z 00018G23KT 10/M01 A3003 RMK A01 T01041012  RH  044%=      5-min Rain = 0
KAM1 170708Z 00019G24KT 10/M01 A3003 RMK A01 T01041013  RH  044%=      5-min Rain = 0
KAM1 170709Z 00017G22KT 10/M01 A3003 RMK A01 T01041013  RH  044%=      5-min Rain = 0
KAM1 170710Z 36016KT 10/M01 A3003 RMK A01 T01041013  RH  044%=      5-min Rain = 0
KAM1 170711Z 00020KT 10/M01 A3003 RMK A01 T01031014  RH  044%=      5-min Rain = 0
KAM1 170712Z 00020KT 10/M02 A3003 RMK A01 T01031015  RH  044%=      5-min Rain = 0
KAM1 170713Z 00018KT 10/M02 A3003 RMK A01 T01041015  RH  043%=      5-min Rain = 0
KAM1 170714Z 00019KT 10/M02 A3003 RMK A01 T01041015  RH  043%=      5-min Rain = 0
KAM1 170715Z 36017KT 10/M02 A3004 RMK A01 T01041015  RH  043%=      5-min Rain = 0
KAM1 170716Z 36020KT 10/M02 A3003 RMK A01 T01031016  RH  043%=      5-min Rain = 0
KAM1 170717Z 35018KT 10/M02 A3004 RMK A01 T01041017  RH  043%=      5-min Rain = 0
KAM1 170718Z 36020KT 10/M02 A3004 RMK A01 T01041017  RH  043%=      5-min Rain = 0
KAM1 170719Z 35017KT 10/M02 A3004 RMK A01 T01031017  RH  043%=      5-min Rain = 0
KAM1 170720Z 35017G22KT 10/M02 A3004 RMK A01 T01031017  RH  043%=      5-min Rain = 0
KAM1 170721Z 36017G22KT 10/M02 A3004 RMK A01 T01021017  RH  043%=      5-min Rain = 0
KAM1 170722Z 36018G23KT 10/M02 A3004 RMK A01 T01021017  RH  043%=      5-min Rain = 0
KAM1 170723Z 00017G23KT 10/M02 A3004 RMK A01 T01021018  RH  043%=      5-min Rain = 0
KAM1 170724Z 36019KT 10/M02 A3004 RMK A01 T01021018  RH  043%=      5-min Rain = 0
KAM1 170725Z 36018G24KT 10/M02 A3004 RMK A01 T01021018  RH  043%=      5-min Rain = 0
KAM1 170726Z 36018KT 10/M02 A3004 RMK A01 T01021019  RH  043%=      5-min Rain = 0
KAM1 170727Z 36019G24KT 10/M02 A3004 RMK A01 T01021019  RH  043%=      5-min Rain = 0
KAM1 170728Z 36018KT 10/M02 A3004 RMK A01 T01021019  RH  043%=      5-min Rain = 0
KAM1 170729Z 35019G26KT 10/M02 A3004 RMK A01 T01011019  RH  043%=      5-min Rain = 0
KAM1 170730Z 35020KT 10/M02 A3004 RMK A01 T01011020  RH  043%=      5-min Rain = 0
KAM1 170731Z 35017G22KT 10/M02 A3004 RMK A01 T01011020  RH  043%=      5-min Rain = 0
KAM1 170732Z 36020G25KT 10/M02 A3004 RMK A01 T01011020  RH  043%=      5-min Rain = 0
KAM1 170733Z 00021KT 10/M02 A3004 RMK A01 T01011021  RH  042%=      5-min Rain = 0
KAM1 170734Z 36019KT 10/M02 A3005 RMK A01 T01021022  RH  042%=      5-min Rain = 0
KAM1 170735Z 35019G25KT 10/M02 A3005 RMK A01 T01021022  RH  042%=      5-min Rain = 0
KAM1 170736Z 00020KT 10/M02 A3005 RMK A01 T01021023  RH  042%=      5-min Rain = 0
KAM1 170737Z 00016G21KT 10/M02 A3005 RMK A01 T01031023  RH  041%=      5-min Rain = 0
KAM1 170738Z 36019KT 10/M02 A3005 RMK A01 T01021023  RH  042%=      5-min Rain = 0
KAM1 170739Z 36021KT 10/M02 A3005 RMK A01 T01021024  RH  041%=      5-min Rain = 0
KAM1 170740Z 36017G24KT 10/M02 A3005 RMK A01 T01021024  RH  041%=      5-min Rain = 0
KAM1 170741Z 00020KT 10/M02 A3005 RMK A01 T01021024  RH  041%=      5-min Rain = 0
KAM1 170742Z 35018G23KT 10/M02 A3005 RMK A01 T01021024  RH  041%=      5-min Rain = 0
KAM1 170743Z 00019KT 10/M02 A3005 RMK A01 T01021024  RH  041%=      5-min Rain = 0
KAM1 170744Z 36019G25KT 10/M02 A3005 RMK A01 T01011024  RH  041%=      5-min Rain = 0
KAM1 170745Z 36018G24KT 10/M02 A3005 RMK A01 T01021024  RH  041%=      5-min Rain = 0
KAM1 170746Z 36020G25KT 10/M02 A3005 RMK A01 T01021024  RH  041%=      5-min Rain = 0
KAM1 170747Z 00017G22KT 10/M02 A3005 RMK A01 T01021024  RH  041%=      5-min Rain = 0
KAM1 170748Z 36017KT 10/M03 A3005 RMK A01 T01021025  RH  041%=      5-min Rain = 0
KAM1 170749Z 00019G24KT 10/M02 A3005 RMK A01 T01011024  RH  041%=      5-min Rain = 0
KAM1 170750Z 00016G23KT 10/M02 A3005 RMK A01 T01011024  RH  041%=      5-min Rain = 0
KAM1 170751Z 00021G28KT 10/M02 A3005 RMK A01 T01011024  RH  041%=      5-min Rain = 0
KAM1 170752Z 01022G27KT 10/M02 A3005 RMK A01 T01011024  RH  041%=      5-min Rain = 0
KAM1 170753Z 01021KT 10/M02 A3005 RMK A01 T01021024  RH  041%=      5-min Rain = 0
KAM1 170754Z 00022KT 10/M02 A3005 RMK A01 T01021024  RH  041%=      5-min Rain = 0
KAM1 170755Z 00019G24KT 10/M02 A3006 RMK A01 T01021024  RH  041%=      5-min Rain = 0
KAM1 170756Z 00024G29KT 10/M02 A3006 RMK A01 T01021024  RH  041%=      5-min Rain = 0
KAM1 170757Z 00022KT 10/M02 A3006 RMK A01 T01021024  RH  041%=      5-min Rain = 0
KAM1 170758Z 00020G27KT 10/M02 A3006 RMK A01 T01021024  RH  041%=      5-min Rain = 0
KAM1 170759Z 00018G25KT 10/M02 A3006 RMK A01 T01021024  RH  041%=      5-min Rain = 0
KAM1 170800Z 00020KT 10/M02 A3006 RMK A01 T01011024  RH  042%=      5-min Rain = 0
KAM1 170801Z 00018KT 10/M02 A3006 RMK A01 T01001024  RH  042%=      5-min Rain = 0
KAM1 170802Z 00018G27KT 10/M02 A3006 RMK A01 T00991023  RH  042%=      5-min Rain = 0
KAM1 170803Z 36021G26KT 10/M02 A3006 RMK A01 T00981023  RH  042%=      5-min Rain = 0
KAM1 170804Z 00021G26KT 10/M02 A3006 RMK A01 T00981023  RH  043%=      5-min Rain = 0
KAM1 170805Z 00022G28KT 10/M02 A3006 RMK A01 T00981023  RH  043%=      5-min Rain = 0
KAM1 170806Z 36022G29KT 10/M02 A3006 RMK A01 T00981023  RH  043%=      5-min Rain = 0
KAM1 170807Z 00020KT 10/M02 A3006 RMK A01 T00981023  RH  043%=      5-min Rain = 0
KAM1 170808Z 36021KT 10/M02 A3006 RMK A01 T00981023  RH  043%=      5-min Rain = 0
KAM1 170809Z 36021KT 10/M02 A3006 RMK A01 T00981022  RH  043%=      5-min Rain = 0
KAM1 170810Z 01018G24KT 10/M02 A3006 RMK A01 T00981022  RH  043%=      5-min Rain = 0
KAM1 170811Z 00019KT 10/M02 A3006 RMK A01 T00971022  RH  043%=      5-min Rain = 0
KAM1 170812Z 00021G28KT 10/M02 A3006 RMK A01 T00961022  RH  043%=      5-min Rain = 0
KAM1 170813Z 01020G25KT 10/M02 A3007 RMK A01 T00961022  RH  044%=      5-min Rain = 0
KAM1 170814Z 01019G26KT 10/M02 A3007 RMK A01 T00961021  RH  044%=      5-min Rain = 0
KAM1 170815Z 01021KT 10/M02 A3007 RMK A01 T00961021  RH  044%=      5-min Rain = 0
KAM1 170816Z 00021KT 10/M02 A3007 RMK A01 T00951020  RH  044%=      5-min Rain = 0
KAM1 170817Z 00019KT 10/M02 A3007 RMK A01 T00951021  RH  044%=      5-min Rain = 0
KAM1 170818Z 00019G25KT 09/M02 A3007 RMK A01 T00941021  RH  044%=      5-min Rain = 0
KAM1 170819Z 00017G22KT 09/M02 A3007 RMK A01 T00941021  RH  045%=      5-min Rain = 0
KAM1 170820Z 01020KT 09/M02 A3008 RMK A01 T00931021  RH  045%=      5-min Rain = 0
KAM1 170821Z 00020G26KT 09/M02 A3008 RMK A01 T00931020  RH  045%=      5-min Rain = 0
KAM1 170822Z 01025G30KT 09/M02 A3008 RMK A01 T00931019  RH  045%=      5-min Rain = 0
KAM1 170823Z 00021G26KT 09/M02 A3008 RMK A01 T00931019  RH  046%=      5-min Rain = 0
KAM1 170824Z 00020G29KT 09/M02 A3008 RMK A01 T00921018  RH  046%=      5-min Rain = 0
KAM1 170825Z 00023G29KT 09/M02 A3008 RMK A01 T00921018  RH  046%=      5-min Rain = 0
KAM1 170826Z 00019G27KT 09/M02 A3008 RMK A01 T00921017  RH  046%=      5-min Rain = 0
KAM1 170827Z 00019G25KT 09/M02 A3008 RMK A01 T00911017  RH  047%=      5-min Rain = 0
KAM1 170828Z 35019G25KT 09/M02 A3008 RMK A01 T00901017  RH  047%=      5-min Rain = 0
KAM1 170829Z 36021G26KT 09/M02 A3008 RMK A01 T00901017  RH  047%=      5-min Rain = 0
KAM1 170830Z 36018KT 09/M02 A3008 RMK A01 T00891017  RH  047%=      5-min Rain = 0
KAM1 170831Z 36018KT 09/M02 A3009 RMK A01 T00891016  RH  048%=      5-min Rain = 0
KAM1 170832Z 36016G23KT 09/M02 A3009 RMK A01 T00881016  RH  048%=      5-min Rain = 0
KAM1 170833Z 00017G22KT 09/M02 A3009 RMK A01 T00871015  RH  048%=      5-min Rain = 0
KAM1 170834Z 36019G24KT 09/M02 A3009 RMK A01 T00871015  RH  049%=      5-min Rain = 0
KAM1 170835Z 00016KT 09/M02 A3009 RMK A01 T00871015  RH  049%=      5-min Rain = 0
KAM1 170836Z 00018G23KT 09/M02 A3009 RMK A01 T00861015  RH  049%=      5-min Rain = 0
KAM1 170837Z 00021KT 09/M02 A3009 RMK A01 T00861015  RH  049%=      5-min Rain = 0
KAM1 170838Z 01019G26KT 09/M01 A3009 RMK A01 T00861014  RH  049%=      5-min Rain = 0
KAM1 170839Z 01019G25KT 09/M01 A3009 RMK A01 T00861014  RH  050%=      5-min Rain = 0
KAM1 170840Z 00021KT 09/M01 A3009 RMK A01 T00861014  RH  050%=      5-min Rain = 0
KAM1 170841Z 01019G26KT 09/M01 A3009 RMK A01 T00861013  RH  050%=      5-min Rain = 0
KAM1 170842Z 00019G24KT 09/M01 A3009 RMK A01 T00861013  RH  050%=      5-min Rain = 0
KAM1 170843Z 36017KT 09/M01 A3009 RMK A01 T00851013  RH  050%=      5-min Rain = 0
KAM1 170844Z 00017G24KT 09/M01 A3009 RMK A01 T00851013  RH  050%=      5-min Rain = 0
KAM1 170845Z 00022G28KT 08/M01 A3009 RMK A01 T00841013  RH  050%=      5-min Rain = 0
KAM1 170846Z 00018G23KT 08/M01 A3009 RMK A01 T00841013  RH  050%=      5-min Rain = 0
KAM1 170847Z 00019KT 08/M01 A3009 RMK A01 T00841013  RH  051%=      5-min Rain = 0
KAM1 170848Z 36020KT 08/M01 A3009 RMK A01 T00841012  RH  051%=      5-min Rain = 0
KAM1 170849Z 00019G25KT 08/M01 A3009 RMK A01 T00841012  RH  051%=      5-min Rain = 0
KAM1 170850Z 36022G27KT 08/M01 A3009 RMK A01 T00831012  RH  051%=      5-min Rain = 0
KAM1 170851Z 00019G24KT 08/M01 A3009 RMK A01 T00831012  RH  051%=      5-min Rain = 0
KAM1 170852Z 36018KT 08/M01 A3009 RMK A01 T00831012  RH  051%=      5-min Rain = 0
KAM1 170853Z 00019KT 08/M01 A3009 RMK A01 T00831012  RH  051%=      5-min Rain = 0
KAM1 170854Z 00017G22KT 08/M01 A3009 RMK A01 T00831012  RH  051%=      5-min Rain = 0
KAM1 170855Z 01020KT 08/M01 A3009 RMK A01 T00821012  RH  052%=      5-min Rain = 0
KAM1 170856Z 00018KT 08/M01 A3009 RMK A01 T00811012  RH  052%=      5-min Rain = 0
KAM1 170857Z 01017G23KT 08/M01 A3009 RMK A01 T00821012  RH  052%=      5-min Rain = 0
KAM1 170858Z 01018KT 08/M01 A3009 RMK A01 T00811012  RH  052%=      5-min Rain = 0
KAM1 170859Z 01013KT 08/M01 A3009 RMK A01 T00801012  RH  052%=      5-min Rain = 0
KAM1 170900Z 00019G28KT 08/M01 A3009 RMK A01 T00791012  RH  053%=      5-min Rain = 0
KAM1 170901Z 00017G22KT 08/M01 A3009 RMK A01 T00791012  RH  053%=      5-min Rain = 0
KAM1 170902Z 00019KT 08/M01 A3009 RMK A01 T00791011  RH  053%=      5-min Rain = 0
KAM1 170903Z 36018KT 08/M01 A3009 RMK A01 T00791011  RH  053%=      5-min Rain = 0
KAM1 170904Z 36017G22KT 08/M01 A3009 RMK A01 T00791011  RH  053%=      5-min Rain = 0
KAM1 170905Z 00016G23KT 08/M01 A3009 RMK A01 T00791011  RH  053%=      5-min Rain = 0
KAM1 170906Z 00018KT 08/M01 A3009 RMK A01 T00781010  RH  053%=      5-min Rain = 0
KAM1 170907Z 00018G25KT 08/M01 A3009 RMK A01 T00781010  RH  054%=      5-min Rain = 0
KAM1 170908Z 00016G21KT 08/M01 A3009 RMK A01 T00771010  RH  054%=      5-min Rain = 0
KAM1 170909Z 01018KT 08/M01 A3009 RMK A01 T00771010  RH  054%=      5-min Rain = 0
KAM1 170910Z 01019KT 08/M01 A3009 RMK A01 T00771010  RH  054%=      5-min Rain = 0
KAM1 170911Z 00016G22KT 08/M01 A3009 RMK A01 T00771010  RH  054%=      5-min Rain = 0
KAM1 170912Z 00016KT 08/M01 A3009 RMK A01 T00771010  RH  054%=      5-min Rain = 0
KAM1 170913Z 00019KT 08/M01 A3009 RMK A01 T00761010  RH  055%=      5-min Rain = 0
KAM1 170914Z 00019KT 08/M01 A301 RMK A01 T00761009  RH  055%=      5-min Rain = 0
KAM1 170915Z 00019G24KT 08/M01 A301 RMK A01 T00761009  RH  055%=      5-min Rain = 0
KAM1 170916Z 01019KT 08/M01 A301 RMK A01 T00761009  RH  055%=      5-min Rain = 0
KAM1 170917Z 01020KT 08/M01 A301 RMK A01 T00761009  RH  055%=      5-min Rain = 0
KAM1 170918Z 00018KT 08/M01 A3009 RMK A01 T00761009  RH  055%=      5-min Rain = 0
KAM1 170919Z 01015KT 08/M01 A3009 RMK A01 T00761008  RH  055%=      5-min Rain = 0
KAM1 170920Z 01015KT 08/M01 A3009 RMK A01 T00751009  RH  055%=      5-min Rain = 0
KAM1 170921Z 00017KT 07/M01 A301 RMK A01 T00741008  RH  056%=      5-min Rain = 0
KAM1 170922Z 00017KT 07/M01 A301 RMK A01 T00741008  RH  056%=      5-min Rain = 0
KAM1 170923Z 01019KT 07/M01 A301 RMK A01 T00741008  RH  056%=      5-min Rain = 0
KAM1 170924Z 01017KT 07/M01 A301 RMK A01 T00741008  RH  056%=      5-min Rain = 0
KAM1 170925Z 00018G26KT 07/M01 A301 RMK A01 T00741007  RH  056%=      5-min Rain = 0
KAM1 170926Z 01020G27KT 07/M01 A301 RMK A01 T00741007  RH  057%=      5-min Rain = 0
KAM1 170927Z 00017KT 07/M01 A301 RMK A01 T00741007  RH  057%=      5-min Rain = 0
KAM1 170928Z 00017KT 07/M01 A301 RMK A01 T00741007  RH  056%=      5-min Rain = 0
KAM1 170929Z 00018G23KT 07/M01 A301 RMK A01 T00741007  RH  057%=      5-min Rain = 0
KAM1 170930Z 00015G21KT 07/M01 A301 RMK A01 T00731006  RH  057%=      5-min Rain = 0
KAM1 170931Z 00021G26KT 07/M01 A301 RMK A01 T00731006  RH  057%=      5-min Rain = 0
KAM1 170932Z 00019KT 07/M01 A301 RMK A01 T00731006  RH  057%=      5-min Rain = 0
KAM1 170933Z 00017G23KT 07/M01 A301 RMK A01 T00731006  RH  057%=      5-min Rain = 0
KAM1 170934Z 00017G25KT 07/M01 A301 RMK A01 T00731006  RH  057%=      5-min Rain = 0
KAM1 170935Z 00019G24KT 07/M01 A301 RMK A01 T00721005  RH  058%=      5-min Rain = 0
KAM1 170936Z 00015G20KT 07/M01 A301 RMK A01 T00731005  RH  058%=      5-min Rain = 0
KAM1 170937Z 00020G25KT 07/M01 A301 RMK A01 T00721005  RH  058%=      5-min Rain = 0
KAM1 170938Z 00017KT 07/M01 A301 RMK A01 T00721005  RH  058%=      5-min Rain = 0
KAM1 170939Z 01017G24KT 07/M01 A301 RMK A01 T00721005  RH  058%=      5-min Rain = 0
KAM1 170940Z 01019KT 07/M01 A301 RMK A01 T00711005  RH  059%=      5-min Rain = 0
KAM1 170941Z 00019KT 07/M00 A301 RMK A01 T00711004  RH  059%=      5-min Rain = 0
KAM1 170942Z 01014KT 07/M01 A301 RMK A01 T00711005  RH  059%=      5-min Rain = 0
KAM1 170943Z 01018G23KT 07/M00 A301 RMK A01 T00711004  RH  059%=      5-min Rain = 0
KAM1 170944Z 01016KT 07/M00 A301 RMK A01 T00701004  RH  059%=      5-min Rain = 0
KAM1 170945Z 00018KT 07/M00 A301 RMK A01 T00701004  RH  059%=      5-min Rain = 0
KAM1 170946Z 01016G22KT 07/M00 A301 RMK A01 T00701003  RH  060%=      5-min Rain = 0
KAM1 170947Z 01017G22KT 07/M00 A301 RMK A01 T00701003  RH  060%=      5-min Rain = 0
KAM1 170948Z 00018G23KT 07/M00 A301 RMK A01 T00701003  RH  060%=      5-min Rain = 0
KAM1 170949Z 01018KT 07/M00 A3011 RMK A01 T00701003  RH  060%=      5-min Rain = 0
KAM1 170950Z 01017KT 07/M00 A301 RMK A01 T00701003  RH  060%=      5-min Rain = 0
KAM1 170951Z 00020KT 07/M00 A301 RMK A01 T00701003  RH  060%=      5-min Rain = 0
KAM1 170952Z 00019KT 07/M00 A301 RMK A01 T00701003  RH  060%=      5-min Rain = 0
KAM1 170953Z 01019G25KT 07/M00 A301 RMK A01 T00701002  RH  060%=      5-min Rain = 0
KAM1 170954Z 01015KT 07/M00 A301 RMK A01 T00691002  RH  060%=      5-min Rain = 0
KAM1 170955Z 01018G23KT 07/M00 A3011 RMK A01 T00691002  RH  060%=      5-min Rain = 0
KAM1 170956Z 01017G22KT 07/M00 A3011 RMK A01 T00691002  RH  061%=      5-min Rain = 0
KAM1 170957Z 36017KT 07/M00 A3011 RMK A01 T00691002  RH  061%=      5-min Rain = 0
KAM1 170958Z 01017KT 07/M00 A3011 RMK A01 T00691002  RH  061%=      5-min Rain = 0
KAM1 170959Z 01018KT 07/M00 A3011 RMK A01 T00691001  RH  061%=      5-min Rain = 0
KAM1 171000Z 01016KT 07/M00 A3011 RMK A01 T00681001  RH  061%=      5-min Rain = 0
KAM1 171001Z 00017KT 07/M00 A3011 RMK A01 T00681001  RH  061%=      5-min Rain = 0
KAM1 171002Z 01020KT 07/M00 A3011 RMK A01 T00681001  RH  061%=      5-min Rain = 0
KAM1 171003Z 01016KT 07/M00 A3011 RMK A01 T00681001  RH  061%=      5-min Rain = 0
KAM1 171004Z 01018KT 07/M00 A3011 RMK A01 T00681001  RH  061%=      5-min Rain = 0
KAM1 171005Z 01019KT 07/M00 A3011 RMK A01 T00681001  RH  062%=      5-min Rain = 0
KAM1 171006Z 01018KT 07/M00 A3011 RMK A01 T00681001  RH  061%=      5-min Rain = 0
KAM1 171007Z 01019G24KT 07/M00 A3011 RMK A01 T00681001  RH  061%=      5-min Rain = 0
KAM1 171008Z 01018KT 07/M00 A3011 RMK A01 T00681001  RH  062%=      5-min Rain = 0
KAM1 171009Z 01020KT 07/00 A3011 RMK A01 T006800-0  RH  062%=      5-min Rain = 0
KAM1 171010Z 01018KT 07/00 A3011 RMK A01 T006800-0  RH  062%=      5-min Rain = 0
KAM1 171011Z 01020G25KT 07/M00 A3011 RMK A01 T00681001  RH  062%=      5-min Rain = 0
KAM1 171012Z 01016G21KT 07/00 A3011 RMK A01 T006800-0  RH  062%=      5-min Rain = 0
KAM1 171013Z 01016G21KT 07/M00 A3011 RMK A01 T00671001  RH  062%=      5-min Rain = 0
KAM1 171014Z 01018KT 07/M00 A3011 RMK A01 T00661001  RH  062%=      5-min Rain = 0
KAM1 171015Z 01017KT 07/00 A3011 RMK A01 T006600-0  RH  063%=      5-min Rain = 0
KAM1 171016Z 01018KT 07/00 A3011 RMK A01 T006600-0  RH  063%=      5-min Rain = 0
KAM1 171017Z 01023KT 07/00 A3011 RMK A01 T00660000  RH  063%=      5-min Rain = 0
KAM1 171018Z 01020KT 07/00 A3011 RMK A01 T00670001  RH  063%=      5-min Rain = 0
KAM1 171019Z 01017G22KT 07/00 A3011 RMK A01 T00670000  RH  062%=      5-min Rain = 0
KAM1 171020Z 01019G25KT 07/00 A3011 RMK A01 T00670000  RH  062%=      5-min Rain = 0
KAM1 171021Z 01020KT 07/00 A3011 RMK A01 T00670000  RH  063%=      5-min Rain = 0
KAM1 171022Z 01016KT 07/00 A3011 RMK A01 T00670001  RH  063%=      5-min Rain = 0
KAM1 171023Z 01019KT 07/00 A3011 RMK A01 T00660000  RH  063%=      5-min Rain = 0
KAM1 171024Z 01018G27KT 07/00 A3011 RMK A01 T00660001  RH  063%=      5-min Rain = 0
KAM1 171025Z 01018KT 07/00 A3011 RMK A01 T00660001  RH  063%=      5-min Rain = 0
KAM1 171026Z 01018G23KT 07/00 A3011 RMK A01 T00660001  RH  063%=      5-min Rain = 0
KAM1 171027Z 00020KT 07/00 A3011 RMK A01 T00660001  RH  063%=      5-min Rain = 0
KAM1 171028Z 01020KT 07/00 A3011 RMK A01 T00660001  RH  063%=      5-min Rain = 0
KAM1 171029Z 01018G23KT 07/00 A3012 RMK A01 T00660001  RH  063%=      5-min Rain = 0
KAM1 171030Z 01016KT 07/00 A3012 RMK A01 T00660001  RH  063%=      5-min Rain = 0
KAM1 171031Z 01016KT 07/00 A3012 RMK A01 T00650001  RH  063%=      5-min Rain = 0
KAM1 171032Z 01017G22KT 07/00 A3012 RMK A01 T00650001  RH  064%=      5-min Rain = 0
KAM1 171033Z 01018G24KT 06/00 A3012 RMK A01 T00640001  RH  064%=      5-min Rain = 0
KAM1 171034Z 01016G22KT 06/00 A3012 RMK A01 T00640001  RH  064%=      5-min Rain = 0
KAM1 171035Z 01017KT 06/00 A3012 RMK A01 T00640001  RH  064%=      5-min Rain = 0
KAM1 171036Z 01015KT 06/00 A3012 RMK A01 T00640001  RH  064%=      5-min Rain = 0
KAM1 171037Z 01018KT 06/00 A3012 RMK A01 T00640001  RH  064%=      5-min Rain = 0
KAM1 171038Z 00019KT 06/00 A3012 RMK A01 T00640001  RH  064%=      5-min Rain = 0
KAM1 171039Z 00017KT 06/00 A3012 RMK A01 T00640001  RH  064%=      5-min Rain = 0
KAM1 171040Z 01017KT 06/00 A3012 RMK A01 T00630001  RH  064%=      5-min Rain = 0
KAM1 171041Z 00017G22KT 06/00 A3012 RMK A01 T00630000  RH  064%=      5-min Rain = 0
KAM1 171042Z 00020KT 06/00 A3012 RMK A01 T006200-0  RH  064%=      5-min Rain = 0
KAM1 171043Z 36014G20KT 06/00 A3012 RMK A01 T00620000  RH  064%=      5-min Rain = 0
KAM1 171044Z 00015KT 06/00 A3012 RMK A01 T006200-0  RH  064%=      5-min Rain = 0
KAM1 171045Z 00016KT 06/M00 A3012 RMK A01 T00611001  RH  065%=      5-min Rain = 0
KAM1 171046Z 01015G20KT 06/00 A3012 RMK A01 T006000-0  RH  065%=      5-min Rain = 0
KAM1 171047Z 36014KT 06/00 A3012 RMK A01 T006000-0  RH  065%=      5-min Rain = 0
KAM1 171048Z 01017KT 06/00 A3012 RMK A01 T006000-0  RH  065%=      5-min Rain = 0
KAM1 171049Z 01016KT 06/00 A3012 RMK A01 T00600000  RH  066%=      5-min Rain = 0
KAM1 171050Z 00016G21KT 06/00 A3012 RMK A01 T00600000  RH  066%=      5-min Rain = 0
KAM1 171051Z 00016G24KT 06/00 A3012 RMK A01 T00600000  RH  066%=      5-min Rain = 0
KAM1 171052Z 01014KT 06/00 A3012 RMK A01 T00600000  RH  066%=      5-min Rain = 0
KAM1 171053Z 01018KT 06/00 A3012 RMK A01 T00590000  RH  066%=      5-min Rain = 0
KAM1 171054Z 01017KT 06/00 A3012 RMK A01 T00590000  RH  066%=      5-min Rain = 0
KAM1 171055Z 01016KT 06/00 A3012 RMK A01 T00600001  RH  066%=      5-min Rain = 0
KAM1 171056Z 01018KT 06/00 A3012 RMK A01 T00600000  RH  066%=      5-min Rain = 0
KAM1 171057Z 00017KT 06/00 A3013 RMK A01 T00590000  RH  066%=      5-min Rain = 0
KAM1 171058Z 00013KT 06/00 A3013 RMK A01 T00600000  RH  066%=      5-min Rain = 0
KAM1 171059Z 01017G23KT 06/00 A3013 RMK A01 T00600000  RH  066%=      5-min Rain = 0
KAM1 171100Z 01016KT 06/00 A3013 RMK A01 T00600000  RH  066%=      5-min Rain = 0
KAM1 171101Z 01017KT 06/00 A3013 RMK A01 T00590000  RH  066%=      5-min Rain = 0
KAM1 171102Z 01015G20KT 06/00 A3013 RMK A01 T00590000  RH  066%=      5-min Rain = 0
KAM1 171103Z 00019G25KT 06/00 A3013 RMK A01 T00580000  RH  066%=      5-min Rain = 0
KAM1 171104Z 00018KT 06/00 A3013 RMK A01 T00590000  RH  066%=      5-min Rain = 0
KAM1 171105Z 01019G25KT 06/00 A3013 RMK A01 T00590000  RH  066%=      5-min Rain = 0
KAM1 171106Z 00014KT 06/00 A3013 RMK A01 T00600001  RH  066%=      5-min Rain = 0
KAM1 171107Z 00016KT 06/00 A3013 RMK A01 T005900-0  RH  066%=      5-min Rain = 0
KAM1 171108Z 01018G25KT 06/00 A3014 RMK A01 T005800-0  RH  066%=      5-min Rain = 0
KAM1 171109Z 36019KT 06/00 A3014 RMK A01 T00590000  RH  066%=      5-min Rain = 0
KAM1 171110Z 00016G21KT 06/00 A3014 RMK A01 T00590000  RH  066%=      5-min Rain = 0
KAM1 171111Z 01016KT 06/00 A3014 RMK A01 T00590000  RH  066%=      5-min Rain = 0
KAM1 171112Z 00018KT 06/00 A3014 RMK A01 T005900-0  RH  066%=      5-min Rain = 0
KAM1 171113Z 00018G24KT 06/00 A3014 RMK A01 T005900-0  RH  066%=      5-min Rain = 0
KAM1 171114Z 00021KT 06/00 A3014 RMK A01 T005900-0  RH  066%=      5-min Rain = 0
KAM1 171115Z 00017KT 06/00 A3014 RMK A01 T005900-0  RH  066%=      5-min Rain = 0
KAM1 171116Z 00015KT 06/00 A3014 RMK A01 T005900-0  RH  066%=      5-min Rain = 0
KAM1 171117Z 01017KT 06/M00 A3014 RMK A01 T00581001  RH  066%=      5-min Rain = 0
KAM1 171118Z 00018KT 06/M00 A3014 RMK A01 T00581001  RH  066%=      5-min Rain = 0
KAM1 171119Z 36016G21KT 06/M00 A3014 RMK A01 T00581001  RH  066%=      5-min Rain = 0
KAM1 171120Z 00023G28KT 06/00 A3014 RMK A01 T005800-0  RH  066%=      5-min Rain = 0
KAM1 171121Z 00015KT 06/M00 A3014 RMK A01 T00581001  RH  066%=      5-min Rain = 0
KAM1 171122Z 36018G26KT 06/M00 A3014 RMK A01 T00581001  RH  066%=      5-min Rain = 0
KAM1 171123Z 00017KT 06/M00 A3014 RMK A01 T00571001  RH  066%=      5-min Rain = 0
KAM1 171124Z 00018KT 06/M00 A3014 RMK A01 T00571001  RH  066%=      5-min Rain = 0
KAM1 171125Z 00020G28KT 06/M00 A3014 RMK A01 T00561001  RH  067%=      5-min Rain = 0
KAM1 171126Z 00019G28KT 06/M00 A3014 RMK A01 T00571001  RH  067%=      5-min Rain = 0
KAM1 171127Z 00020KT 06/M00 A3014 RMK A01 T00571001  RH  066%=      5-min Rain = 0
KAM1 171128Z 00021KT 06/M00 A3014 RMK A01 T00571001  RH  066%=      5-min Rain = 0
KAM1 171129Z 00019KT 06/M00 A3014 RMK A01 T00581001  RH  066%=      5-min Rain = 0
KAM1 171130Z 00020G25KT 06/M00 A3014 RMK A01 T00571001  RH  066%=      5-min Rain = 0
KAM1 171131Z 00019KT 06/M00 A3014 RMK A01 T00571001  RH  066%=      5-min Rain = 0
KAM1 171132Z 01018KT 06/M00 A3015 RMK A01 T00571001  RH  066%=      5-min Rain = 0
KAM1 171133Z 36019KT 06/M00 A3015 RMK A01 T00571001  RH  066%=      5-min Rain = 0
KAM1 171134Z 00020KT 06/M00 A3015 RMK A01 T00571001  RH  067%=      5-min Rain = 0
KAM1 171135Z 00015G20KT 06/M00 A3015 RMK A01 T00561001  RH  067%=      5-min Rain = 0
KAM1 171136Z 00018KT 06/M00 A3015 RMK A01 T00561001  RH  067%=      5-min Rain = 0
KAM1 171137Z 00018KT 06/M00 A3015 RMK A01 T00551001  RH  067%=      5-min Rain = 0
KAM1 171138Z 00018KT 06/M00 A3015 RMK A01 T00551001  RH  067%=      5-min Rain = 0
KAM1 171139Z 00019KT 06/M00 A3015 RMK A01 T00551001  RH  067%=      5-min Rain = 0
KAM1 171140Z 00018G25KT 06/M00 A3015 RMK A01 T00551001  RH  067%=      5-min Rain = 0
KAM1 171141Z 36018KT 06/M00 A3015 RMK A01 T00551001  RH  067%=      5-min Rain = 0
KAM1 171142Z 00021KT 06/M00 A3015 RMK A01 T00561001  RH  067%=      5-min Rain = 0
KAM1 171143Z 36019KT 06/M00 A3015 RMK A01 T00561001  RH  067%=      5-min Rain = 0
KAM1 171144Z 00017KT 06/M00 A3015 RMK A01 T00551001  RH  067%=      5-min Rain = 0
KAM1 171145Z 36016KT 05/M00 A3016 RMK A01 T00541001  RH  067%=      5-min Rain = 0
KAM1 171146Z 00016KT 05/M00 A3016 RMK A01 T00541001  RH  068%=      5-min Rain = 0
KAM1 171147Z 01015KT 05/M00 A3016 RMK A01 T00541001  RH  068%=      5-min Rain = 0
KAM1 171148Z 00015KT 05/M00 A3016 RMK A01 T00531001  RH  068%=      5-min Rain = 0
KAM1 171149Z 36016KT 05/M00 A3016 RMK A01 T00531001  RH  068%=      5-min Rain = 0
KAM1 171150Z 00021G26KT 05/M00 A3016 RMK A01 T00531001  RH  068%=      5-min Rain = 0
KAM1 171151Z 36018KT 05/00 A3016 RMK A01 T005400-0  RH  068%=      5-min Rain = 0
KAM1 171152Z 36015KT 05/M00 A3016 RMK A01 T00541001  RH  068%=      5-min Rain = 0
KAM1 171153Z 00016KT 05/M00 A3016 RMK A01 T00541001  RH  068%=      5-min Rain = 0
KAM1 171154Z 36018KT 05/M00 A3016 RMK A01 T00541001  RH  068%=      5-min Rain = 0
KAM1 171155Z 35017KT 05/00 A3016 RMK A01 T005400-0  RH  068%=      5-min Rain = 0
KAM1 171156Z 36016KT 05/00 A3016 RMK A01 T00540000  RH  068%=      5-min Rain = 0
KAM1 171157Z 36016KT 05/00 A3016 RMK A01 T005400-0  RH  068%=      5-min Rain = 0
KAM1 171158Z 36014KT 05/00 A3016 RMK A01 T005300-0  RH  068%=      5-min Rain = 0
KAM1 171159Z 36015KT 05/M00 A3016 RMK A01 T00521001  RH  068%=      5-min Rain = 0
KAM1 171200Z 36014KT 05/00 A3016 RMK A01 T005200-0  RH  069%=      5-min Rain = 0
KAM1 171201Z 00016KT 05/00 A3017 RMK A01 T005100-0  RH  069%=      5-min Rain = 0
KAM1 171202Z 00015KT 05/00 A3017 RMK A01 T005100-0  RH  069%=      5-min Rain = 0
KAM1 171203Z 35014KT 05/00 A3017 RMK A01 T005100-0  RH  069%=      5-min Rain = 0
KAM1 171204Z 35015G21KT 05/00 A3017 RMK A01 T005100-0  RH  069%=      5-min Rain = 0
KAM1 171205Z 00019G24KT 05/00 A3017 RMK A01 T00510000  RH  069%=      5-min Rain = 0
KAM1 171206Z 00019G24KT 05/00 A3017 RMK A01 T00520001  RH  070%=      5-min Rain = 0
KAM1 171207Z 00017G23KT 05/00 A3017 RMK A01 T00530001  RH  069%=      5-min Rain = 0
KAM1 171208Z 00017G22KT 05/00 A3017 RMK A01 T00530001  RH  069%=      5-min Rain = 0
KAM1 171209Z 36017KT 05/00 A3017 RMK A01 T00530001  RH  069%=      5-min Rain = 0
KAM1 171210Z 00016KT 05/00 A3017 RMK A01 T00520001  RH  069%=      5-min Rain = 0
KAM1 171211Z 00017KT 05/00 A3017 RMK A01 T00520001  RH  069%=      5-min Rain = 0
KAM1 171212Z 00018KT 05/00 A3017 RMK A01 T00520001  RH  070%=      5-min Rain = 0
KAM1 171213Z 00017G22KT 05/00 A3017 RMK A01 T00520001  RH  070%=      5-min Rain = 0
KAM1 171214Z 36017KT 05/00 A3017 RMK A01 T00520001  RH  070%=      5-min Rain = 0
KAM1 171215Z 00016KT 05/00 A3017 RMK A01 T00520002  RH  070%=      5-min Rain = 0
KAM1 171216Z 36017KT 05/00 A3017 RMK A01 T00510002  RH  070%=      5-min Rain = 0
KAM1 171217Z 35017KT 05/00 A3017 RMK A01 T00510002  RH  070%=      5-min Rain = 0
KAM1 171218Z 36017KT 05/00 A3017 RMK A01 T00510002  RH  070%=      5-min Rain = 0
KAM1 171219Z 36017KT 05/00 A3017 RMK A01 T00510001  RH  070%=      5-min Rain = 0
KAM1 171220Z 36014KT 05/00 A3017 RMK A01 T00510002  RH  071%=      5-min Rain = 0
KAM1 171221Z 35015KT 05/00 A3017 RMK A01 T00500001  RH  071%=      5-min Rain = 0
KAM1 171222Z 36018KT 05/00 A3017 RMK A01 T00490001  RH  071%=      5-min Rain = 0
KAM1 171223Z 35015KT 05/00 A3017 RMK A01 T00500002  RH  071%=      5-min Rain = 0
KAM1 171224Z 36015KT 05/00 A3017 RMK A01 T00500002  RH  071%=      5-min Rain = 0
KAM1 171225Z 36016KT 05/00 A3017 RMK A01 T00490002  RH  071%=      5-min Rain = 0
KAM1 171226Z 36014G19KT 05/00 A3017 RMK A01 T00490002  RH  072%=      5-min Rain = 0
KAM1 171227Z 35014KT 05/00 A3017 RMK A01 T00490002  RH  072%=      5-min Rain = 0
KAM1 171228Z 36014G19KT 05/00 A3017 RMK A01 T00490002  RH  072%=      5-min Rain = 0
KAM1 171229Z 36018KT 05/00 A3017 RMK A01 T00480002  RH  072%=      5-min Rain = 0
KAM1 171230Z 35016KT 05/00 A3017 RMK A01 T00490003  RH  072%=      5-min Rain = 0
KAM1 171231Z 00015KT 05/00 A3017 RMK A01 T00490003  RH  072%=      5-min Rain = 0
KAM1 171232Z 00015KT 05/00 A3017 RMK A01 T00490003  RH  072%=      5-min Rain = 0
KAM1 171233Z 36015KT 05/00 A3017 RMK A01 T00490003  RH  072%=      5-min Rain = 0
KAM1 171234Z 36014KT 05/00 A3017 RMK A01 T00490003  RH  072%=      5-min Rain = 0
KAM1 171235Z 00016G21KT 05/00 A3017 RMK A01 T00490003  RH  072%=      5-min Rain = 0
KAM1 171236Z 00017KT 05/00 A3017 RMK A01 T00490003  RH  072%=      5-min Rain = 0
KAM1 171237Z 00016KT 05/00 A3017 RMK A01 T00490003  RH  072%=      5-min Rain = 0
KAM1 171238Z 35015KT 05/00 A3017 RMK A01 T00490003  RH  072%=      5-min Rain = 0
KAM1 171239Z 00015KT 05/00 A3017 RMK A01 T00490004  RH  072%=      5-min Rain = 0
KAM1 171240Z 00017G22KT 05/00 A3017 RMK A01 T00480003  RH  073%=      5-min Rain = 0
KAM1 171241Z 36018G23KT 05/00 A3017 RMK A01 T00480003  RH  073%=      5-min Rain = 0
KAM1 171242Z 36017KT 05/00 A3017 RMK A01 T00490004  RH  073%=      5-min Rain = 0
KAM1 171243Z 36016KT 05/00 A3017 RMK A01 T00490004  RH  073%=      5-min Rain = 0
KAM1 171244Z 36017G24KT 05/00 A3018 RMK A01 T00480004  RH  073%=      5-min Rain = 0
KAM1 171245Z 01017KT 05/00 A3017 RMK A01 T00480004  RH  073%=      5-min Rain = 0
KAM1 171246Z 00017KT 05/00 A3018 RMK A01 T00480004  RH  073%=      5-min Rain = 0
KAM1 171247Z 36015G20KT 05/00 A3018 RMK A01 T00480004  RH  073%=      5-min Rain = 0
KAM1 171248Z 36016KT 05/00 A3017 RMK A01 T00480004  RH  073%=      5-min Rain = 0
KAM1 171249Z 00019KT 05/00 A3018 RMK A01 T00480004  RH  073%=      5-min Rain = 0
KAM1 171250Z 00017KT 05/01 A3018 RMK A01 T00480005  RH  073%=      5-min Rain = 0
KAM1 171251Z 00018G25KT 05/01 A3018 RMK A01 T00480005  RH  073%=      5-min Rain = 0
KAM1 171252Z 00016G21KT 05/01 A3018 RMK A01 T00480005  RH  073%=      5-min Rain = 0
KAM1 171253Z 00016G21KT 05/01 A3018 RMK A01 T00480005  RH  073%=      5-min Rain = 0
KAM1 171254Z 00014KT 05/01 A3018 RMK A01 T00480005  RH  074%=      5-min Rain = 0
KAM1 171255Z 36016KT 05/01 A3018 RMK A01 T00470005  RH  074%=      5-min Rain = 0
KAM1 171256Z 00016G21KT 05/01 A3018 RMK A01 T00470005  RH  074%=      5-min Rain = 0
KAM1 171257Z 36016KT 05/01 A3018 RMK A01 T00470005  RH  074%=      5-min Rain = 0
KAM1 171258Z 00018KT 05/01 A3018 RMK A01 T00470005  RH  074%=      5-min Rain = 0
KAM1 171259Z 01017KT 05/01 A3018 RMK A01 T00470006  RH  075%=      5-min Rain = 0
KAM1 171300Z 36018KT 05/01 A3018 RMK A01 T00470006  RH  074%=      5-min Rain = 0
KAM1 171301Z 00016KT 05/01 A3018 RMK A01 T00470005  RH  074%=      5-min Rain = 0
KAM1 171302Z 01018G23KT 05/01 A3018 RMK A01 T00470006  RH  075%=      5-min Rain = 0
KAM1 171303Z 00016KT 05/01 A3018 RMK A01 T00470006  RH  075%=      5-min Rain = 0
KAM1 171304Z 36016KT 05/01 A3018 RMK A01 T00470007  RH  075%=      5-min Rain = 0
KAM1 171305Z 00016KT 05/01 A3018 RMK A01 T00470006  RH  075%=      5-min Rain = 0
KAM1 171306Z 36016KT 05/01 A3018 RMK A01 T00460006  RH  075%=      5-min Rain = 0
KAM1 171307Z 00015KT 05/01 A3019 RMK A01 T00460006  RH  075%=      5-min Rain = 0
KAM1 171308Z 36015KT 05/01 A3019 RMK A01 T00460006  RH  076%=      5-min Rain = 0
KAM1 171309Z 35016KT 05/01 A3019 RMK A01 T00450006  RH  076%=      5-min Rain = 0
KAM1 171310Z 36018KT 05/01 A3019 RMK A01 T00450007  RH  076%=      5-min Rain = 0
KAM1 171311Z 36015KT 05/01 A3019 RMK A01 T00450007  RH  076%=      5-min Rain = 0
KAM1 171312Z 36014KT 05/01 A3019 RMK A01 T00450007  RH  076%=      5-min Rain = 0
KAM1 171313Z 00015KT 04/01 A3019 RMK A01 T00440007  RH  077%=      5-min Rain = 0
KAM1 171314Z 36017KT 04/01 A3019 RMK A01 T00440007  RH  077%=      5-min Rain = 0
KAM1 171315Z 00019KT 04/01 A3019 RMK A01 T00440008  RH  077%=      5-min Rain = 0
KAM1 171316Z 36016KT 05/01 A3019 RMK A01 T00450008  RH  077%=      5-min Rain = 0
KAM1 171317Z 00015KT 05/01 A3019 RMK A01 T00450008  RH  077%=      5-min Rain = 0
KAM1 171318Z 36014KT 04/01 A3019 RMK A01 T00440008  RH  077%=      5-min Rain = 0
KAM1 171319Z 00016KT 04/01 A3019 RMK A01 T00430008  RH  078%=      5-min Rain = 0
KAM1 171320Z 36016KT 04/01 A3019 RMK A01 T00430008  RH  078%=      5-min Rain = 0
KAM1 171321Z 35016G22KT 04/01 A3019 RMK A01 T00440009  RH  078%=      5-min Rain = 0
KAM1 171322Z 36015KT 04/01 A3019 RMK A01 T00440009  RH  078%=      5-min Rain = 0
KAM1 171323Z 36016KT 04/01 A3019 RMK A01 T00440009  RH  078%=      5-min Rain = 0
KAM1 171324Z 36015KT 04/01 A3019 RMK A01 T00440009  RH  078%=      5-min Rain = 0
KAM1 171325Z 36015KT 04/01 A3019 RMK A01 T00440009  RH  078%=      5-min Rain = 0
KAM1 171326Z 36012KT 04/01 A3019 RMK A01 T00440009  RH  078%=      5-min Rain = 0
KAM1 171327Z 36015KT 04/01 A3019 RMK A01 T00440009  RH  078%=      5-min Rain = 0
KAM1 171328Z 35015KT 04/01 A3019 RMK A01 T00440009  RH  078%=      5-min Rain = 0
KAM1 171329Z 35013KT 04/01 A3019 RMK A01 T00440009  RH  078%=      5-min Rain = 0
KAM1 171330Z 36015KT 04/01 A3019 RMK A01 T00430009  RH  078%=      5-min Rain = 0
KAM1 171331Z 36014KT 04/01 A3019 RMK A01 T00430009  RH  079%=      5-min Rain = 0
KAM1 171332Z 36015G20KT 04/01 A3019 RMK A01 T00430010  RH  079%=      5-min Rain = 0
KAM1 171333Z 35013KT 04/01 A3019 RMK A01 T00430010  RH  079%=      5-min Rain = 0
KAM1 171334Z 35014KT 04/01 A3019 RMK A01 T00430009  RH  079%=      5-min Rain = 0
KAM1 171335Z 00016KT 04/01 A3019 RMK A01 T00430010  RH  079%=      5-min Rain = 0
KAM1 171336Z 35014KT 04/01 A302 RMK A01 T00430010  RH  079%=      5-min Rain = 0
KAM1 171337Z 36013KT 04/01 A302 RMK A01 T00430010  RH  079%=      5-min Rain = 0
KAM1 171338Z 36014KT 04/01 A302 RMK A01 T00430010  RH  079%=      5-min Rain = 0
KAM1 171339Z 35014G19KT 04/01 A3019 RMK A01 T00430010  RH  079%=      5-min Rain = 0
KAM1 171340Z 36013KT 04/01 A302 RMK A01 T00430010  RH  079%=      5-min Rain = 0
KAM1 171341Z 36012G17KT 04/01 A302 RMK A01 T00430011  RH  079%=      5-min Rain = 0
KAM1 171342Z 36012KT 04/01 A302 RMK A01 T00430011  RH  079%=      5-min Rain = 0
KAM1 171343Z 36012KT 04/01 A302 RMK A01 T00430011  RH  079%=      5-min Rain = 0
KAM1 171344Z 35013KT 04/01 A302 RMK A01 T00430011  RH  080%=      5-min Rain = 0
KAM1 171345Z 36012KT 04/01 A302 RMK A01 T00430011  RH  080%=      5-min Rain = 0
KAM1 171346Z 35013KT 04/01 A302 RMK A01 T00430011  RH  080%=      5-min Rain = 0
KAM1 171347Z 35014KT 04/01 A302 RMK A01 T00430011  RH  080%=      5-min Rain = 0
KAM1 171348Z 36015G20KT 04/01 A302 RMK A01 T00440012  RH  080%=      5-min Rain = 0
KAM1 171349Z 00017KT 05/01 A302 RMK A01 T00450013  RH  080%=      5-min Rain = 0
KAM1 171350Z 35013G18KT 05/01 A302 RMK A01 T00460013  RH  079%=      5-min Rain = 0
KAM1 171351Z 36015KT 05/01 A302 RMK A01 T00460013  RH  079%=      5-min Rain = 0
KAM1 171352Z 35016KT 05/01 A302 RMK A01 T00460013  RH  079%=      5-min Rain = 0
KAM1 171353Z 35012KT 05/01 A302 RMK A01 T00460013  RH  079%=      5-min Rain = 0
KAM1 171354Z 36014KT 05/01 A302 RMK A01 T00460013  RH  079%=      5-min Rain = 0
KAM1 171355Z 35015KT 05/01 A302 RMK A01 T00460013  RH  079%=      5-min Rain = 0
KAM1 171356Z 35014G20KT 05/01 A302 RMK A01 T00470013  RH  079%=      5-min Rain = 0
KAM1 171357Z 36015G20KT 05/01 A302 RMK A01 T00470013  RH  079%=      5-min Rain = 0
KAM1 171358Z 35015KT 05/01 A302 RMK A01 T00470013  RH  078%=      5-min Rain = 0
KAM1 171359Z 36013KT 05/01 A302 RMK A01 T00470013  RH  078%=      5-min Rain = 0
KAM1 171400Z 35013KT 05/01 A302 RMK A01 T00470013  RH  078%=      5-min Rain = 0
KAM1 171401Z 36013G18KT 05/01 A302 RMK A01 T00480013  RH  078%=      5-min Rain = 0
KAM1 171402Z 00014G19KT 05/01 A302 RMK A01 T00480013  RH  078%=      5-min Rain = 0
KAM1 171403Z 36013KT 05/01 A302 RMK A01 T00480013  RH  078%=      5-min Rain = 0
KAM1 171404Z 35014KT 05/01 A302 RMK A01 T00480013  RH  078%=      5-min Rain = 0
KAM1 171405Z 35015KT 05/01 A302 RMK A01 T00480013  RH  078%=      5-min Rain = 0
KAM1 171406Z 35014KT 05/01 A302 RMK A01 T00480014  RH  078%=      5-min Rain = 0
KAM1 171407Z 36014KT 05/01 A302 RMK A01 T00490014  RH  078%=      5-min Rain = 0
KAM1 171408Z 35013KT 05/01 A302 RMK A01 T00490014  RH  078%=      5-min Rain = 0
KAM1 171409Z 36013KT 05/01 A302 RMK A01 T00490014  RH  078%=      5-min Rain = 0
KAM1 171410Z 36014KT 05/01 A302 RMK A01 T00490014  RH  078%=      5-min Rain = 0
KAM1 171411Z 35017KT 05/01 A302 RMK A01 T00490014  RH  078%=      5-min Rain = 0
KAM1 171412Z 36014KT 05/01 A302 RMK A01 T00500014  RH  078%=      5-min Rain = 0
KAM1 171413Z 35015KT 05/01 A302 RMK A01 T00500014  RH  078%=      5-min Rain = 0
KAM1 171414Z 36014KT 05/01 A302 RMK A01 T00500014  RH  078%=      5-min Rain = 0
KAM1 171415Z 35014KT 05/01 A302 RMK A01 T00500014  RH  078%=      5-min Rain = 0
KAM1 171416Z 00014KT 05/02 A302 RMK A01 T00510015  RH  078%=      5-min Rain = 0
KAM1 171417Z 36013KT 05/02 A302 RMK A01 T00510015  RH  078%=      5-min Rain = 0
KAM1 171418Z 36012KT 05/02 A302 RMK A01 T00510015  RH  077%=      5-min Rain = 0
KAM1 171419Z 00012KT 05/02 A302 RMK A01 T00520015  RH  077%=      5-min Rain = 0
KAM1 171420Z 36015G21KT 05/02 A302 RMK A01 T00520015  RH  077%=      5-min Rain = 0
KAM1 171421Z 36014KT 05/02 A302 RMK A01 T00520015  RH  077%=      5-min Rain = 0
KAM1 171422Z 36014KT 05/02 A302 RMK A01 T00520015  RH  077%=      5-min Rain = 0
KAM1 171423Z 36016KT 05/02 A302 RMK A01 T00520015  RH  077%=      5-min Rain = 0
KAM1 171424Z 36012KT 05/02 A302 RMK A01 T00530015  RH  077%=      5-min Rain = 0
KAM1 171425Z 35013G20KT 05/02 A302 RMK A01 T00530016  RH  077%=      5-min Rain = 0
KAM1 171426Z 36016G21KT 05/02 A302 RMK A01 T00540016  RH  076%=      5-min Rain = 0
KAM1 171427Z 36013KT 05/02 A302 RMK A01 T00540015  RH  076%=      5-min Rain = 0
KAM1 171428Z 36011G17KT 05/02 A302 RMK A01 T00540016  RH  076%=      5-min Rain = 0
KAM1 171429Z 36010KT 06/02 A302 RMK A01 T00550016  RH  076%=      5-min Rain = 0
KAM1 171430Z 36016G21KT 06/02 A302 RMK A01 T00550016  RH  076%=      5-min Rain = 0
KAM1 171431Z 36016KT 06/02 A302 RMK A01 T00550015  RH  076%=      5-min Rain = 0
KAM1 171432Z 36014KT 06/02 A302 RMK A01 T00550015  RH  076%=      5-min Rain = 0
KAM1 171433Z 36014KT 06/02 A302 RMK A01 T00560016  RH  076%=      5-min Rain = 0
KAM1 171434Z 35012KT 06/02 A302 RMK A01 T00560016  RH  075%=      5-min Rain = 0
KAM1 171435Z 35013KT 06/02 A302 RMK A01 T00560016  RH  075%=      5-min Rain = 0
KAM1 171436Z 35016KT 06/02 A302 RMK A01 T00560016  RH  075%=      5-min Rain = 0
KAM1 171437Z 36015KT 06/02 A302 RMK A01 T00560015  RH  075%=      5-min Rain = 0
KAM1 171438Z 36016KT 06/02 A302 RMK A01 T00560015  RH  075%=      5-min Rain = 0
KAM1 171439Z 36015KT 06/02 A302 RMK A01 T00570015  RH  075%=      5-min Rain = 0
KAM1 171440Z 36013KT 06/02 A302 RMK A01 T00570016  RH  075%=      5-min Rain = 0
KAM1 171441Z 35014KT 06/02 A302 RMK A01 T00580016  RH  075%=      5-min Rain = 0
KAM1 171442Z 36015KT 06/02 A3021 RMK A01 T00580016  RH  074%=      5-min Rain = 0
KAM1 171443Z 01014KT 06/02 A3021 RMK A01 T00580015  RH  074%=      5-min Rain = 0
KAM1 171444Z 00013KT 06/02 A302 RMK A01 T00580015  RH  074%=      5-min Rain = 0
KAM1 171445Z 00011KT 06/02 A3021 RMK A01 T00590016  RH  074%=      5-min Rain = 0
KAM1 171446Z 36014KT 06/02 A3021 RMK A01 T00590016  RH  074%=      5-min Rain = 0
KAM1 171447Z 01012KT 06/02 A3021 RMK A01 T00600016  RH  073%=      5-min Rain = 0
KAM1 171448Z 36011KT 06/02 A3021 RMK A01 T00600016  RH  073%=      5-min Rain = 0
KAM1 171449Z 00014KT 06/02 A3021 RMK A01 T00610016  RH  073%=      5-min Rain = 0
KAM1 171450Z 36014KT 06/02 A3021 RMK A01 T00600015  RH  073%=      5-min Rain = 0
KAM1 171451Z 36012KT 06/02 A3021 RMK A01 T00610016  RH  073%=      5-min Rain = 0
KAM1 171452Z 00014KT 06/02 A3021 RMK A01 T00610015  RH  073%=      5-min Rain = 0
KAM1 171453Z 01014KT 06/02 A3021 RMK A01 T00610015  RH  072%=      5-min Rain = 0
KAM1 171454Z 00012G17KT 06/02 A3021 RMK A01 T00610015  RH  072%=      5-min Rain = 0
KAM1 171455Z 01015KT 06/02 A3021 RMK A01 T00620016  RH  072%=      5-min Rain = 0
KAM1 171456Z 01011KT 06/02 A3021 RMK A01 T00620015  RH  072%=      5-min Rain = 0
KAM1 171457Z 00014KT 06/02 A3021 RMK A01 T00630015  RH  072%=      5-min Rain = 0
KAM1 171458Z 01015KT 06/02 A3021 RMK A01 T00630015  RH  071%=      5-min Rain = 0
KAM1 171459Z 00012KT 06/02 A3021 RMK A01 T00630015  RH  071%=      5-min Rain = 0
KAM1 171500Z 01012KT 06/02 A3021 RMK A01 T00640015  RH  071%=      5-min Rain = 0
KAM1 171501Z 01012KT 07/02 A3021 RMK A01 T00650016  RH  071%=      5-min Rain = 0
KAM1 171502Z 01012KT 07/02 A3021 RMK A01 T00660016  RH  071%=      5-min Rain = 0
KAM1 171503Z 00012KT 07/02 A3021 RMK A01 T00660016  RH  070%=      5-min Rain = 0
KAM1 171504Z 00011KT 07/02 A3021 RMK A01 T00670016  RH  070%=      5-min Rain = 0
KAM1 171505Z 00012G17KT 07/02 A3021 RMK A01 T00670016  RH  070%=      5-min Rain = 0
KAM1 171506Z 36013KT 07/02 A3021 RMK A01 T00670016  RH  070%=      5-min Rain = 0
KAM1 171507Z 00011KT 07/02 A3021 RMK A01 T00670016  RH  070%=      5-min Rain = 0
KAM1 171508Z 01013KT 07/02 A3021 RMK A01 T00670017  RH  070%=      5-min Rain = 0
KAM1 171509Z 01013KT 07/02 A3021 RMK A01 T00680017  RH  070%=      5-min Rain = 0
KAM1 171510Z 01015KT 07/02 A3021 RMK A01 T00680016  RH  070%=      5-min Rain = 0
KAM1 171511Z 01013KT 07/02 A3021 RMK A01 T00680016  RH  070%=      5-min Rain = 0
KAM1 171512Z 00010KT 07/02 A3021 RMK A01 T00670016  RH  070%=      5-min Rain = 0
KAM1 171513Z 01010KT 07/02 A3021 RMK A01 T00680018  RH  070%=      5-min Rain = 0
KAM1 171514Z 00013KT 07/02 A3021 RMK A01 T00700017  RH  069%=      5-min Rain = 0
KAM1 171515Z 01012KT 07/02 A3021 RMK A01 T00700016  RH  069%=      5-min Rain = 0
KAM1 171516Z 01012KT 07/02 A3021 RMK A01 T00710016  RH  068%=      5-min Rain = 0
KAM1 171517Z 01014KT 07/02 A3021 RMK A01 T00720017  RH  068%=      5-min Rain = 0
KAM1 171518Z 01012KT 07/02 A3021 RMK A01 T00710016  RH  068%=      5-min Rain = 0
KAM1 171519Z 00011KT 07/02 A3021 RMK A01 T00710017  RH  068%=      5-min Rain = 0
KAM1 171520Z 00014KT 07/02 A3021 RMK A01 T00720017  RH  068%=      5-min Rain = 0
KAM1 171521Z 00014KT 07/02 A3021 RMK A01 T00720016  RH  068%=      5-min Rain = 0
KAM1 171522Z 00011KT 07/02 A3021 RMK A01 T00720016  RH  067%=      5-min Rain = 0
KAM1 171523Z 01011KT 07/02 A3021 RMK A01 T00730017  RH  068%=      5-min Rain = 0
KAM1 171524Z 01015G20KT 08/02 A3022 RMK A01 T00750018  RH  067%=      5-min Rain = 0
KAM1 171525Z 00015KT 08/02 A3021 RMK A01 T00750016  RH  066%=      5-min Rain = 0
KAM1 171526Z 00016KT 07/02 A3022 RMK A01 T00740015  RH  066%=      5-min Rain = 0
KAM1 171527Z 01015KT 07/01 A3022 RMK A01 T00730014  RH  066%=      5-min Rain = 0
KAM1 171528Z 01014KT 07/02 A3022 RMK A01 T00730015  RH  066%=      5-min Rain = 0
KAM1 171529Z 01014KT 07/02 A3022 RMK A01 T00740015  RH  066%=      5-min Rain = 0
KAM1 171530Z 01014KT 08/02 A3022 RMK A01 T00750016  RH  066%=      5-min Rain = 0
KAM1 171531Z 01015KT 08/02 A3022 RMK A01 T00750015  RH  066%=      5-min Rain = 0
KAM1 171532Z 02014KT 08/02 A3022 RMK A01 T00750015  RH  066%=      5-min Rain = 0
KAM1 171533Z 36012KT 08/02 A3022 RMK A01 T00750015  RH  066%=      5-min Rain = 0
KAM1 171534Z 01013G18KT 08/02 A3022 RMK A01 T00760016  RH  066%=      5-min Rain = 0
KAM1 171535Z 01012KT 08/02 A3022 RMK A01 T00770016  RH  065%=      5-min Rain = 0
KAM1 171536Z 01014KT 08/02 A3022 RMK A01 T00780016  RH  065%=      5-min Rain = 0
KAM1 171537Z 02015KT 08/02 A3022 RMK A01 T00770015  RH  065%=      5-min Rain = 0
KAM1 171538Z 01012KT 08/02 A3022 RMK A01 T00770015  RH  065%=      5-min Rain = 0
KAM1 171539Z 00012KT 08/02 A3022 RMK A01 T00770016  RH  065%=      5-min Rain = 0
KAM1 171540Z 01014KT 08/02 A3022 RMK A01 T00780016  RH  065%=      5-min Rain = 0
KAM1 171541Z 01011KT 08/02 A3022 RMK A01 T00790016  RH  065%=      5-min Rain = 0
KAM1 171542Z 01012KT 08/02 A3022 RMK A01 T00790016  RH  065%=      5-min Rain = 0
KAM1 171543Z 01011KT 08/02 A3022 RMK A01 T00790016  RH  064%=      5-min Rain = 0
KAM1 171544Z 01013KT 08/02 A3022 RMK A01 T00800017  RH  064%=      5-min Rain = 0
KAM1 171545Z 02016KT 08/02 A3022 RMK A01 T00810017  RH  064%=      5-min Rain = 0
KAM1 171546Z 02013KT 08/02 A3022 RMK A01 T00810015  RH  063%=      5-min Rain = 0
KAM1 171547Z 02015KT 08/02 A3022 RMK A01 T00800015  RH  063%=      5-min Rain = 0
KAM1 171548Z 02013KT 08/02 A3022 RMK A01 T00810015  RH  063%=      5-min Rain = 0
KAM1 171549Z 02016KT 08/02 A3022 RMK A01 T00810015  RH  063%=      5-min Rain = 0
KAM1 171550Z 02013KT 08/01 A3022 RMK A01 T00810014  RH  063%=      5-min Rain = 0
KAM1 171551Z 02014KT 08/02 A3022 RMK A01 T00810015  RH  063%=      5-min Rain = 0
KAM1 171552Z 02012KT 08/02 A3022 RMK A01 T00820016  RH  063%=      5-min Rain = 0
KAM1 171553Z 01013KT 08/02 A3022 RMK A01 T00830016  RH  063%=      5-min Rain = 0
KAM1 171554Z 01012G17KT 08/02 A3022 RMK A01 T00840017  RH  062%=      5-min Rain = 0
KAM1 171555Z 01012KT 09/02 A3022 RMK A01 T00850016  RH  062%=      5-min Rain = 0
KAM1 171556Z 01013KT 09/02 A3022 RMK A01 T00850016  RH  062%=      5-min Rain = 0
KAM1 171557Z 01014KT 09/02 A3022 RMK A01 T00850016  RH  062%=      5-min Rain = 0
KAM1 171558Z 02012KT 09/02 A3022 RMK A01 T00850015  RH  061%=      5-min Rain = 0
KAM1 171559Z 01013KT 08/02 A3022 RMK A01 T00840015  RH  062%=      5-min Rain = 0
KAM1 171600Z 01013KT 08/02 A3022 RMK A01 T00830015  RH  062%=      5-min Rain = 0
KAM1 171601Z 02011G16KT 09/02 A3021 RMK A01 T00850016  RH  062%=      5-min Rain = 0
KAM1 171602Z 02014KT 09/02 A3022 RMK A01 T00860016  RH  061%=      5-min Rain = 0
KAM1 171603Z 02011KT 09/02 A3021 RMK A01 T00860015  RH  061%=      5-min Rain = 0
KAM1 171604Z 01011KT 09/02 A3021 RMK A01 T00850016  RH  062%=      5-min Rain = 0
KAM1 171605Z 01014KT 09/02 A3021 RMK A01 T00880017  RH  061%=      5-min Rain = 0
KAM1 171606Z 02013KT 09/02 A3021 RMK A01 T00880015  RH  060%=      5-min Rain = 0
KAM1 171607Z 02013KT 09/02 A3021 RMK A01 T00860015  RH  061%=      5-min Rain = 0
KAM1 171608Z 02012KT 09/02 A3021 RMK A01 T00860015  RH  061%=      5-min Rain = 0
KAM1 171609Z 02013KT 09/02 A3022 RMK A01 T00870016  RH  061%=      5-min Rain = 0
KAM1 171610Z 02013KT 09/02 A3022 RMK A01 T00890016  RH  060%=      5-min Rain = 0
KAM1 171611Z 02014KT 09/02 A3022 RMK A01 T00880015  RH  060%=      5-min Rain = 0
KAM1 171612Z 03014KT 09/02 A3022 RMK A01 T00890015  RH  060%=      5-min Rain = 0
KAM1 171613Z 01014KT 09/02 A3022 RMK A01 T00890015  RH  060%=      5-min Rain = 0
KAM1 171614Z 02010KT 09/02 A3022 RMK A01 T00890015  RH  060%=      5-min Rain = 0
KAM1 171615Z 02011KT 09/02 A3022 RMK A01 T00900016  RH  060%=      5-min Rain = 0
KAM1 171616Z 01010G16KT 09/02 A3022 RMK A01 T00910016  RH  060%=      5-min Rain = 0
KAM1 171617Z 01011KT 09/02 A3022 RMK A01 T00930017  RH  059%=      5-min Rain = 0
KAM1 171618Z 02012KT 10/02 A3022 RMK A01 T00950018  RH  059%=      5-min Rain = 0
KAM1 171619Z 01010KT 09/02 A3022 RMK A01 T00940015  RH  058%=      5-min Rain = 0
KAM1 171620Z 02009KT 09/02 A3022 RMK A01 T00930016  RH  059%=      5-min Rain = 0
KAM1 171621Z 02012KT 09/02 A3022 RMK A01 T00930016  RH  059%=      5-min Rain = 0
KAM1 171622Z 01010G15KT 09/02 A3022 RMK A01 T00920015  RH  059%=      5-min Rain = 0
KAM1 171623Z 01013KT 09/02 A3022 RMK A01 T00920015  RH  059%=      5-min Rain = 0
KAM1 171624Z 00012KT 09/02 A3022 RMK A01 T00940016  RH  058%=      5-min Rain = 0
KAM1 171625Z 36010KT 09/02 A3021 RMK A01 T00940015  RH  058%=      5-min Rain = 0
KAM1 171626Z 00010KT 09/02 A3021 RMK A01 T00930016  RH  058%=      5-min Rain = 0
KAM1 171627Z 01008KT 09/02 A3021 RMK A01 T00930015  RH  058%=      5-min Rain = 0
KAM1 171628Z 01008KT 10/02 A3021 RMK A01 T00950018  RH  059%=      5-min Rain = 0
KAM1 171629Z 01012KT 10/02 A3021 RMK A01 T00960017  RH  058%=      5-min Rain = 0
KAM1 171630Z 01014KT 10/02 A3021 RMK A01 T00960015  RH  057%=      5-min Rain = 0
KAM1 171631Z 01011KT 09/01 A3021 RMK A01 T00930012  RH  057%=      5-min Rain = 0
KAM1 171632Z 01010KT 09/01 A3021 RMK A01 T00910013  RH  058%=      5-min Rain = 0
KAM1 171633Z 03012KT 09/01 A3021 RMK A01 T00910013  RH  058%=      5-min Rain = 0
KAM1 171634Z 02012KT 09/01 A3021 RMK A01 T00910013  RH  058%=      5-min Rain = 0
KAM1 171635Z 02010KT 09/01 A3021 RMK A01 T00900013  RH  058%=      5-min Rain = 0
KAM1 171636Z 00012KT 09/01 A3021 RMK A01 T00900014  RH  059%=      5-min Rain = 0
KAM1 171637Z 01013KT 09/01 A3021 RMK A01 T00920013  RH  058%=      5-min Rain = 0
KAM1 171638Z 02013KT 09/01 A3021 RMK A01 T00920013  RH  058%=      5-min Rain = 0
KAM1 171639Z 02012KT 09/02 A3021 RMK A01 T00940015  RH  058%=      5-min Rain = 0
KAM1 171640Z 01011KT 10/02 A3021 RMK A01 T00950015  RH  057%=      5-min Rain = 0
KAM1 171641Z 01008KT 10/02 A3021 RMK A01 T00950015  RH  057%=      5-min Rain = 0
KAM1 171642Z 03010KT 10/02 A3021 RMK A01 T00980017  RH  057%=      5-min Rain = 0
KAM1 171643Z 02010KT 10/02 A3021 RMK A01 T00980016  RH  057%=      5-min Rain = 0
KAM1 171644Z 03012KT 10/02 A3021 RMK A01 T00990016  RH  056%=      5-min Rain = 0
KAM1 171645Z 01009KT 10/02 A3021 RMK A01 T00980015  RH  056%=      5-min Rain = 0
KAM1 171646Z 00012KT 10/02 A3021 RMK A01 T00980016  RH  057%=      5-min Rain = 0
KAM1 171647Z 01011KT 10/01 A3021 RMK A01 T00980014  RH  056%=      5-min Rain = 0
KAM1 171648Z 02011KT 10/02 A3021 RMK A01 T00990015  RH  056%=      5-min Rain = 0
KAM1 171649Z 02012KT 10/02 A3021 RMK A01 T01000015  RH  056%=      5-min Rain = 0
KAM1 171650Z 02011KT 10/01 A3021 RMK A01 T01000014  RH  055%=      5-min Rain = 0
KAM1 171651Z 02010KT 10/01 A3021 RMK A01 T00980014  RH  056%=      5-min Rain = 0
KAM1 171652Z 03009KT 10/02 A3021 RMK A01 T00990015  RH  056%=      5-min Rain = 0
KAM1 171653Z 03009KT 10/02 A3021 RMK A01 T00990016  RH  056%=      5-min Rain = 0
KAM1 171654Z 03009KT 10/02 A3021 RMK A01 T01000015  RH  056%=      5-min Rain = 0
KAM1 171655Z 02011KT 10/02 A3021 RMK A01 T01010017  RH  056%=      5-min Rain = 0
KAM1 171656Z 01011KT 10/02 A3021 RMK A01 T01030015  RH  054%=      5-min Rain = 0
KAM1 171657Z 36010KT 10/02 A3021 RMK A01 T01010015  RH  055%=      5-min Rain = 0
KAM1 171658Z 01010G15KT 10/02 A3021 RMK A01 T01010016  RH  055%=      5-min Rain = 0
KAM1 171659Z 01008KT 10/02 A3021 RMK A01 T01000015  RH  055%=      5-min Rain = 0
KAM1 171700Z 01008KT 10/01 A3021 RMK A01 T00980013  RH  056%=      5-min Rain = 0
KAM1 171701Z 00010KT 10/02 A3021 RMK A01 T00980015  RH  056%=      5-min Rain = 0
KAM1 171702Z 01012KT 10/02 A3021 RMK A01 T01020018  RH  056%=      5-min Rain = 0
KAM1 171703Z 02008KT 10/02 A3021 RMK A01 T01030016  RH  055%=      5-min Rain = 0
KAM1 171704Z 35008KT 10/02 A3021 RMK A01 T01040018  RH  055%=      5-min Rain = 0
KAM1 171705Z 02010KT 11/02 A3021 RMK A01 T01050018  RH  055%=      5-min Rain = 0
KAM1 171706Z 02012KT 11/02 A3021 RMK A01 T01050017  RH  054%=      5-min Rain = 0
KAM1 171707Z 01010KT 11/02 A3021 RMK A01 T01050016  RH  054%=      5-min Rain = 0
KAM1 171708Z 00008KT 10/02 A3021 RMK A01 T01030015  RH  055%=      5-min Rain = 0
KAM1 171709Z 36010KT 10/02 A3021 RMK A01 T01030017  RH  055%=      5-min Rain = 0
KAM1 171710Z 35013KT 10/02 A3021 RMK A01 T01040018  RH  055%=      5-min Rain = 0
KAM1 171711Z 00009KT 10/02 A3021 RMK A01 T01040017  RH  055%=      5-min Rain = 0
KAM1 171712Z 02009KT 11/02 A3021 RMK A01 T01050018  RH  055%=      5-min Rain = 0
KAM1 171713Z 02008KT 11/02 A3021 RMK A01 T01060018  RH  054%=      5-min Rain = 0
KAM1 171714Z 01009KT 11/02 A3021 RMK A01 T01070018  RH  054%=      5-min Rain = 0
KAM1 171715Z 35011KT 11/02 A3021 RMK A01 T01080019  RH  054%=      5-min Rain = 0
KAM1 171716Z 35008KT 11/02 A3021 RMK A01 T01070017  RH  054%=      5-min Rain = 0
KAM1 171717Z 01013KT 11/02 A3021 RMK A01 T01060017  RH  054%=      5-min Rain = 0
KAM1 171718Z 01012KT 11/02 A3021 RMK A01 T01050015  RH  054%=      5-min Rain = 0
KAM1 171719Z 36010KT 10/02 A3021 RMK A01 T01040016  RH  055%=      5-min Rain = 0
KAM1 171720Z 35008KT 11/02 A3021 RMK A01 T01050017  RH  054%=      5-min Rain = 0
KAM1 171721Z 35011KT 11/02 A3021 RMK A01 T01050017  RH  055%=      5-min Rain = 0
KAM1 171722Z 35009KT 10/02 A3021 RMK A01 T01040016  RH  054%=      5-min Rain = 0
KAM1 171723Z 00011KT 11/02 A3021 RMK A01 T01060019  RH  055%=      5-min Rain = 0
KAM1 171724Z 36008KT 11/02 A3021 RMK A01 T01080018  RH  054%=      5-min Rain = 0
KAM1 171725Z 00010KT 11/02 A3021 RMK A01 T01070017  RH  054%=      5-min Rain = 0
KAM1 171726Z 02009KT 11/02 A3021 RMK A01 T01050016  RH  054%=      5-min Rain = 0
KAM1 171727Z 02008KT 11/02 A3021 RMK A01 T01050016  RH  054%=      5-min Rain = 0
KAM1 171728Z 00011KT 11/02 A3022 RMK A01 T01050016  RH  054%=      5-min Rain = 0
KAM1 171729Z 00010KT 11/02 A3022 RMK A01 T01050015  RH  054%=      5-min Rain = 0
KAM1 171730Z 00012KT 11/02 A3022 RMK A01 T01070017  RH  054%=      5-min Rain = 0
KAM1 171731Z 36011KT 11/02 A3022 RMK A01 T01080016  RH  053%=      5-min Rain = 0
KAM1 171732Z 00010KT 11/02 A3022 RMK A01 T01090015  RH  052%=      5-min Rain = 0
KAM1 171733Z 36014KT 11/02 A3022 RMK A01 T01100015  RH  052%=      5-min Rain = 0
KAM1 171734Z 01015KT 11/01 A3022 RMK A01 T01090012  RH  051%=      5-min Rain = 0
KAM1 171735Z 00016KT 11/01 A3022 RMK A01 T01080012  RH  051%=      5-min Rain = 0
KAM1 171736Z 00014KT 11/01 A3022 RMK A01 T01070012  RH  052%=      5-min Rain = 0
KAM1 171737Z 00010KT 11/01 A3022 RMK A01 T01070013  RH  052%=      5-min Rain = 0
KAM1 171738Z 01013KT 11/01 A3022 RMK A01 T01090013  RH  052%=      5-min Rain = 0
KAM1 171739Z 02010KT 11/01 A3022 RMK A01 T01090012  RH  051%=      5-min Rain = 0
KAM1 171740Z 01011KT 11/01 A3021 RMK A01 T01080013  RH  052%=      5-min Rain = 0
KAM1 171741Z 01013KT 11/01 A3022 RMK A01 T01100014  RH  052%=      5-min Rain = 0
KAM1 171742Z 35014KT 11/02 A3022 RMK A01 T01110015  RH  052%=      5-min Rain = 0
KAM1 171743Z 35013KT 11/01 A3022 RMK A01 T01110013  RH  051%=      5-min Rain = 0
KAM1 171744Z 00011KT 11/01 A3022 RMK A01 T01090013  RH  052%=      5-min Rain = 0
KAM1 171745Z 00011KT 11/01 A3022 RMK A01 T01090014  RH  052%=      5-min Rain = 0
KAM1 171746Z 36009KT 11/02 A3022 RMK A01 T01100016  RH  052%=      5-min Rain = 0
KAM1 171747Z 01011G16KT 11/02 A3022 RMK A01 T01140019  RH  052%=      5-min Rain = 0
KAM1 171748Z 02014KT 12/02 A3022 RMK A01 T01170018  RH  051%=      5-min Rain = 0
KAM1 171749Z 01013KT 12/02 A3022 RMK A01 T01170017  RH  050%=      5-min Rain = 0
KAM1 171750Z 00008KT 12/02 A3021 RMK A01 T01170017  RH  050%=      5-min Rain = 0
KAM1 171751Z 36008KT 12/02 A3021 RMK A01 T01160015  RH  050%=      5-min Rain = 0
KAM1 171752Z 01009G14KT 11/02 A3021 RMK A01 T01140015  RH  051%=      5-min Rain = 0
KAM1 171753Z 00013KT 12/02 A3021 RMK A01 T01160018  RH  051%=      5-min Rain = 0
KAM1 171754Z 01011KT 12/02 A3021 RMK A01 T01170017  RH  050%=      5-min Rain = 0
KAM1 171755Z 02013G22KT 12/02 A3021 RMK A01 T01160017  RH  050%=      5-min Rain = 0
KAM1 171756Z 36011KT 12/02 A3021 RMK A01 T01160017  RH  050%=      5-min Rain = 0
KAM1 171757Z 35012KT 12/02 A3021 RMK A01 T01160016  RH  050%=      5-min Rain = 0
KAM1 171758Z 34010KT 12/02 A3021 RMK A01 T01160017  RH  050%=      5-min Rain = 0
KAM1 171759Z 36011KT 12/02 A3021 RMK A01 T01180017  RH  050%=      5-min Rain = 0
KAM1 171800Z 36014KT 12/02 A3021 RMK A01 T01190018  RH  050%=      5-min Rain = 0
KAM1 171801Z 36012G17KT 12/02 A3021 RMK A01 T01180016  RH  050%=      5-min Rain = 0
KAM1 171802Z 35013KT 12/02 A3021 RMK A01 T01160016  RH  050%=      5-min Rain = 0
KAM1 171803Z 35011KT 12/02 A3021 RMK A01 T01160016  RH  050%=      5-min Rain = 0
KAM1 171804Z 36008KT 12/02 A3021 RMK A01 T01170017  RH  050%=      5-min Rain = 0
KAM1 171805Z 35014KT 12/02 A3021 RMK A01 T01190019  RH  050%=      5-min Rain = 0
KAM1 171806Z 00013KT 12/02 A3021 RMK A01 T01190015  RH  049%=      5-min Rain = 0
KAM1 171807Z 01011KT 12/01 A3021 RMK A01 T01160013  RH  049%=      5-min Rain = 0
KAM1 171808Z 36010G17KT 12/01 A302 RMK A01 T01150013  RH  050%=      5-min Rain = 0
KAM1 171809Z 01015KT 12/02 A302 RMK A01 T01160016  RH  050%=      5-min Rain = 0
KAM1 171810Z 01014KT 12/01 A302 RMK A01 T01160014  RH  049%=      5-min Rain = 0
KAM1 171811Z 01014KT 12/01 A302 RMK A01 T01150014  RH  050%=      5-min Rain = 0
KAM1 171812Z 00014KT 12/01 A302 RMK A01 T01160014  RH  050%=      5-min Rain = 0
KAM1 171813Z 35013KT 12/01 A302 RMK A01 T01150014  RH  050%=      5-min Rain = 0
KAM1 171814Z 35013KT 12/02 A302 RMK A01 T01160015  RH  050%=      5-min Rain = 0
KAM1 171815Z 35011KT 12/02 A302 RMK A01 T01160015  RH  050%=      5-min Rain = 0
KAM1 171816Z 35011KT 12/02 A302 RMK A01 T01170015  RH  050%=      5-min Rain = 0
KAM1 171817Z 35011KT 12/02 A302 RMK A01 T01170015  RH  050%=      5-min Rain = 0
KAM1 171818Z 00013KT 12/02 A302 RMK A01 T01190016  RH  049%=      5-min Rain = 0
KAM1 171819Z 00011KT 12/02 A302 RMK A01 T01190015  RH  049%=      5-min Rain = 0
KAM1 171820Z 01010KT 12/01 A302 RMK A01 T01180014  RH  049%=      5-min Rain = 0
KAM1 171821Z 02010KT 12/02 A302 RMK A01 T01170015  RH  049%=      5-min Rain = 0
KAM1 171822Z 02010KT 12/02 A302 RMK A01 T01190016  RH  049%=      5-min Rain = 0
KAM1 171823Z 01009KT 12/02 A3019 RMK A01 T01200016  RH  049%=      5-min Rain = 0
KAM1 171824Z 01009KT 12/02 A3019 RMK A01 T01220017  RH  049%=      5-min Rain = 0
KAM1 171825Z 35012KT 12/02 A3019 RMK A01 T01230017  RH  048%=      5-min Rain = 0
KAM1 171826Z 36013KT 12/02 A3019 RMK A01 T01240016  RH  048%=      5-min Rain = 0
KAM1 171827Z 35010KT 12/02 A3019 RMK A01 T01240017  RH  048%=      5-min Rain = 0
KAM1 171828Z 35007KT 13/02 A3019 RMK A01 T01260018  RH  048%=      5-min Rain = 0
KAM1 171829Z 01008G13KT 13/02 A3019 RMK A01 T01270019  RH  048%=      5-min Rain = 0
KAM1 171830Z 00012KT 13/02 A3019 RMK A01 T01280016  RH  047%=      5-min Rain = 0
KAM1 171831Z 35010KT 13/01 A3019 RMK A01 T01250014  RH  047%=      5-min Rain = 0
KAM1 171832Z 36010KT 12/02 A3019 RMK A01 T01230015  RH  047%=      5-min Rain = 0
KAM1 171833Z 35013KT 12/01 A3019 RMK A01 T01220014  RH  048%=      5-min Rain = 0
KAM1 171834Z 00011G16KT 12/01 A3019 RMK A01 T01220013  RH  047%=      5-min Rain = 0
KAM1 171835Z 00008KT 12/01 A3019 RMK A01 T01200013  RH  048%=      5-min Rain = 0
KAM1 171836Z 02009KT 12/01 A3018 RMK A01 T01200013  RH  048%=      5-min Rain = 0
KAM1 171837Z 02007KT 12/01 A3018 RMK A01 T01200012  RH  048%=      5-min Rain = 0
KAM1 171838Z 35010KT 12/01 A3018 RMK A01 T01200014  RH  048%=      5-min Rain = 0
KAM1 171839Z 35008KT 12/02 A3018 RMK A01 T01220016  RH  048%=      5-min Rain = 0
KAM1 171840Z 00005KT 13/02 A3018 RMK A01 T01250018  RH  048%=      5-min Rain = 0
KAM1 171841Z 35008KT 13/02 A3018 RMK A01 T01250015  RH  047%=      5-min Rain = 0
KAM1 171842Z 35010KT 12/01 A3018 RMK A01 T01240014  RH  047%=      5-min Rain = 0
KAM1 171843Z 35013KT 12/02 A3018 RMK A01 T01230015  RH  047%=      5-min Rain = 0
KAM1 171844Z 36011KT 12/01 A3018 RMK A01 T01240014  RH  047%=      5-min Rain = 0
KAM1 171845Z 00010KT 12/01 A3018 RMK A01 T01230013  RH  047%=      5-min Rain = 0
KAM1 171846Z 35012KT 12/02 A3018 RMK A01 T01240015  RH  048%=      5-min Rain = 0
KAM1 171847Z 35010KT 12/01 A3018 RMK A01 T01240014  RH  047%=      5-min Rain = 0
KAM1 171848Z 35011KT 12/01 A3018 RMK A01 T01230013  RH  047%=      5-min Rain = 0
KAM1 171849Z 36006KT 12/01 A3018 RMK A01 T01230013  RH  047%=      5-min Rain = 0
KAM1 171850Z 35012KT 13/02 A3017 RMK A01 T01250015  RH  047%=      5-min Rain = 0
KAM1 171851Z 36010KT 12/01 A3018 RMK A01 T01240012  RH  046%=      5-min Rain = 0
KAM1 171852Z 01009KT 12/01 A3017 RMK A01 T01230013  RH  047%=      5-min Rain = 0
KAM1 171853Z 35010KT 12/01 A3017 RMK A01 T01230014  RH  047%=      5-min Rain = 0
KAM1 171854Z 35007KT 12/01 A3017 RMK A01 T01240014  RH  047%=      5-min Rain = 0
KAM1 171855Z 34011KT 13/02 A3017 RMK A01 T01260015  RH  047%=      5-min Rain = 0
KAM1 171856Z 35011KT 13/01 A3017 RMK A01 T01260014  RH  046%=      5-min Rain = 0
KAM1 171857Z 36011KT 13/01 A3017 RMK A01 T01250013  RH  046%=      5-min Rain = 0
KAM1 171858Z 02010KT 13/01 A3017 RMK A01 T01250013  RH  046%=      5-min Rain = 0
KAM1 171859Z 02010KT 13/01 A3017 RMK A01 T01250012  RH  046%=      5-min Rain = 0
KAM1 171900Z 00008KT 13/01 A3017 RMK A01 T01270014  RH  046%=      5-min Rain = 0
KAM1 171901Z 36010KT 13/01 A3017 RMK A01 T01280014  RH  046%=      5-min Rain = 0
KAM1 171902Z 36009KT 13/01 A3017 RMK A01 T01270013  RH  046%=      5-min Rain = 0
KAM1 171903Z 36010KT 13/01 A3017 RMK A01 T01270014  RH  046%=      5-min Rain = 0
KAM1 171904Z 35007KT 13/01 A3017 RMK A01 T01270012  RH  045%=      5-min Rain = 0
KAM1 171905Z 36007KT 13/01 A3017 RMK A01 T01260012  RH  046%=      5-min Rain = 0
KAM1 171906Z 35007KT 13/01 A3017 RMK A01 T01260014  RH  047%=      5-min Rain = 0
KAM1 171907Z 00009G14KT 13/02 A3017 RMK A01 T01270015  RH  046%=      5-min Rain = 0
KAM1 171908Z 35010KT 13/02 A3017 RMK A01 T01290015  RH  046%=      5-min Rain = 0
KAM1 171909Z 00012KT 13/02 A3017 RMK A01 T01300015  RH  045%=      5-min Rain = 0
KAM1 171910Z 00010KT 13/01 A3017 RMK A01 T01270011  RH  045%=      5-min Rain = 0
KAM1 171911Z 00008KT 13/01 A3016 RMK A01 T01250012  RH  046%=      5-min Rain = 0
KAM1 171912Z 35010KT 13/01 A3016 RMK A01 T01260013  RH  046%=      5-min Rain = 0
KAM1 171913Z 35010KT 13/01 A3016 RMK A01 T01270013  RH  046%=      5-min Rain = 0
KAM1 171914Z 34009KT 13/01 A3016 RMK A01 T01280012  RH  045%=      5-min Rain = 0
KAM1 171915Z 00008KT 13/01 A3016 RMK A01 T01280012  RH  045%=      5-min Rain = 0
KAM1 171916Z 35010KT 13/01 A3016 RMK A01 T01280010  RH  044%=      5-min Rain = 0
KAM1 171917Z 35011KT 13/01 A3016 RMK A01 T01280013  RH  045%=      5-min Rain = 0
KAM1 171918Z 00009KT 13/01 A3016 RMK A01 T01280011  RH  045%=      5-min Rain = 0
KAM1 171919Z 35010KT 13/01 A3016 RMK A01 T01280013  RH  045%=      5-min Rain = 0
KAM1 171920Z 35008KT 13/01 A3016 RMK A01 T01290014  RH  045%=      5-min Rain = 0
KAM1 171921Z 00008KT 13/02 A3016 RMK A01 T01300015  RH  045%=      5-min Rain = 0
KAM1 171922Z 35008KT 13/01 A3016 RMK A01 T01310014  RH  045%=      5-min Rain = 0
KAM1 171923Z 00006KT 13/01 A3016 RMK A01 T01300012  RH  045%=      5-min Rain = 0
KAM1 171924Z 00004KT 13/01 A3015 RMK A01 T01290012  RH  045%=      5-min Rain = 0
KAM1 171925Z 03002KT 13/01 A3015 RMK A01 T01280011  RH  045%=      5-min Rain = 0
KAM1 171926Z 00005KT 13/01 A3015 RMK A01 T01270011  RH  045%=      5-min Rain = 0
KAM1 171927Z 35008KT 13/01 A3015 RMK A01 T01280014  RH  046%=      5-min Rain = 0
KAM1 171928Z 35007KT 13/01 A3015 RMK A01 T01300013  RH  045%=      5-min Rain = 0
KAM1 171929Z 35007KT 13/01 A3015 RMK A01 T01300010  RH  044%=      5-min Rain = 0
KAM1 171930Z 34010KT 13/01 A3015 RMK A01 T01300011  RH  044%=      5-min Rain = 0
KAM1 171931Z 35009KT 13/01 A3015 RMK A01 T01290010  RH  044%=      5-min Rain = 0
KAM1 171932Z 33008KT 13/01 A3015 RMK A01 T01290011  RH  044%=      5-min Rain = 0
KAM1 171933Z 35007KT 13/01 A3015 RMK A01 T01280011  RH  045%=      5-min Rain = 0
KAM1 171934Z 35010KT 13/01 A3014 RMK A01 T01300013  RH  045%=      5-min Rain = 0
KAM1 171935Z 00010KT 13/01 A3014 RMK A01 T01320012  RH  044%=      5-min Rain = 0
KAM1 171936Z 01010KT 13/01 A3014 RMK A01 T01320010  RH  043%=      5-min Rain = 0
KAM1 171937Z 02007KT 13/01 A3014 RMK A01 T01310007  RH  043%=      5-min Rain = 0
KAM1 171938Z 02008KT 13/01 A3014 RMK A01 T01300008  RH  043%=      5-min Rain = 0
KAM1 171939Z 03006KT 13/01 A3014 RMK A01 T01300008  RH  044%=      5-min Rain = 0
KAM1 171940Z 00007KT 13/01 A3014 RMK A01 T01300011  RH  044%=      5-min Rain = 0
KAM1 171941Z 00008KT 13/01 A3014 RMK A01 T01310011  RH  044%=      5-min Rain = 0
KAM1 171942Z 00008KT 13/01 A3014 RMK A01 T01310011  RH  044%=      5-min Rain = 0
KAM1 171943Z 35010KT 13/01 A3014 RMK A01 T01310013  RH  044%=      5-min Rain = 0
KAM1 171944Z 34006KT 13/01 A3014 RMK A01 T01330012  RH  044%=      5-min Rain = 0
KAM1 171945Z 35006KT 13/01 A3014 RMK A01 T01310013  RH  044%=      5-min Rain = 0
KAM1 171946Z 36006KT 13/01 A3014 RMK A01 T01310013  RH  044%=      5-min Rain = 0
KAM1 171947Z 35004KT 13/01 A3013 RMK A01 T01310012  RH  044%=      5-min Rain = 0
KAM1 171948Z 34005KT 13/01 A3013 RMK A01 T01310012  RH  044%=      5-min Rain = 0
KAM1 171949Z 36008KT 13/01 A3013 RMK A01 T01310013  RH  044%=      5-min Rain = 0
KAM1 171950Z 01010KT 13/01 A3013 RMK A01 T01340012  RH  044%=      5-min Rain = 0
KAM1 171951Z 02007KT 13/01 A3013 RMK A01 T01320009  RH  043%=      5-min Rain = 0
KAM1 171952Z 36008KT 13/01 A3013 RMK A01 T01320012  RH  044%=      5-min Rain = 0
KAM1 171953Z 36009KT 13/01 A3013 RMK A01 T01340011  RH  043%=      5-min Rain = 0
KAM1 171954Z 34008KT 13/01 A3013 RMK A01 T01340011  RH  043%=      5-min Rain = 0
KAM1 171955Z 33006KT 13/01 A3013 RMK A01 T01340009  RH  043%=      5-min Rain = 0
KAM1 171956Z 33006KT 13/01 A3013 RMK A01 T01310009  RH  043%=      5-min Rain = 0
KAM1 171957Z 33007KT 13/01 A3013 RMK A01 T01310009  RH  043%=      5-min Rain = 0
KAM1 171958Z 33004KT 13/01 A3013 RMK A01 T01310007  RH  043%=      5-min Rain = 0
KAM1 171959Z 35004KT 13/01 A3013 RMK A01 T01290008  RH  044%=      5-min Rain = 0
KAM1 172000Z 35006KT 13/01 A3013 RMK A01 T01290008  RH  043%=      5-min Rain = 0
KAM1 172001Z 36007KT 13/01 A3013 RMK A01 T01310009  RH  043%=      5-min Rain = 0
KAM1 172002Z 35007KT 13/01 A3013 RMK A01 T01320007  RH  043%=      5-min Rain = 0
KAM1 172003Z 34004KT 13/01 A3013 RMK A01 T01300008  RH  043%=      5-min Rain = 0
KAM1 172004Z 36005KT 13/01 A3013 RMK A01 T01310008  RH  043%=      5-min Rain = 0
KAM1 172005Z 01003KT 13/01 A3012 RMK A01 T01310007  RH  043%=      5-min Rain = 0
KAM1 172006Z 33004KT 13/01 A3012 RMK A01 T01300008  RH  043%=      5-min Rain = 0
KAM1 172007Z 00008KT 13/01 A3012 RMK A01 T01310009  RH  043%=      5-min Rain = 0
KAM1 172008Z 03006KT 13/01 A3012 RMK A01 T01330010  RH  043%=      5-min Rain = 0
KAM1 172009Z 36004KT 13/01 A3012 RMK A01 T01340010  RH  043%=      5-min Rain = 0
KAM1 172010Z 33007KT 14/01 A3012 RMK A01 T01360012  RH  043%=      5-min Rain = 0
KAM1 172011Z 32007KT 14/01 A3012 RMK A01 T01360008  RH  041%=      5-min Rain = 0
KAM1 172012Z 33005KT 13/01 A3012 RMK A01 T01340007  RH  042%=      5-min Rain = 0
KAM1 172013Z 31002KT 13/01 A3012 RMK A01 T01330007  RH  042%=      5-min Rain = 0
KAM1 172014Z 00006KT 13/01 A3012 RMK A01 T01320007  RH  042%=      5-min Rain = 0
KAM1 172015Z 01007KT 13/01 A3012 RMK A01 T01330005  RH  041%=      5-min Rain = 0
KAM1 172016Z 02008KT 14/00 A3012 RMK A01 T01350003  RH  041%=      5-min Rain = 0
KAM1 172017Z 02006KT 14/00 A3012 RMK A01 T01350002  RH  040%=      5-min Rain = 0
KAM1 172018Z 03005KT 14/00 A3012 RMK A01 T01350003  RH  040%=      5-min Rain = 0
KAM1 172019Z 03003KT 13/00 A3012 RMK A01 T013400-0  RH  040%=      5-min Rain = 0
KAM1 172020Z 36005KT 13/00 A3012 RMK A01 T01330002  RH  040%=      5-min Rain = 0
KAM1 172021Z 35004KT 13/00 A3012 RMK A01 T01330001  RH  040%=      5-min Rain = 0
KAM1 172022Z 36004KT 13/00 A3012 RMK A01 T01330003  RH  041%=      5-min Rain = 0
KAM1 172023Z 01005KT 13/00 A3012 RMK A01 T01330004  RH  041%=      5-min Rain = 0
KAM1 172024Z 02004KT 13/01 A3011 RMK A01 T01340006  RH  042%=      5-min Rain = 0
KAM1 172025Z 00004KT 14/01 A3011 RMK A01 T01360007  RH  042%=      5-min Rain = 0
KAM1 172026Z 01005KT 14/01 A3011 RMK A01 T01360009  RH  042%=      5-min Rain = 0
KAM1 172027Z 00004KT 14/01 A3011 RMK A01 T01370010  RH  042%=      5-min Rain = 0
KAM1 172028Z 35005KT 14/01 A3011 RMK A01 T01380009  RH  041%=      5-min Rain = 0
KAM1 172029Z 01007KT 14/01 A3011 RMK A01 T01380007  RH  041%=      5-min Rain = 0
KAM1 172030Z 02004KT 14/00 A3011 RMK A01 T01360004  RH  040%=      5-min Rain = 0
KAM1 172031Z 02002KT 13/00 A3011 RMK A01 T01340004  RH  041%=      5-min Rain = 0
KAM1 172032Z 35003G8KT 13/00 A3011 RMK A01 T01330003  RH  041%=      5-min Rain = 0
KAM1 172033Z 35007KT 13/00 A3011 RMK A01 T01340004  RH  041%=      5-min Rain = 0
KAM1 172034Z 36008KT 14/00 A3011 RMK A01 T01370004  RH  040%=      5-min Rain = 0
KAM1 172035Z 01006KT 14/00 A3011 RMK A01 T01370003  RH  040%=      5-min Rain = 0
KAM1 172036Z 35007KT 14/01 A3011 RMK A01 T01370006  RH  041%=      5-min Rain = 0
KAM1 172037Z 36007KT 14/00 A3011 RMK A01 T01380004  RH  040%=      5-min Rain = 0
KAM1 172038Z 00006KT 14/00 A3011 RMK A01 T01370003  RH  040%=      5-min Rain = 0
KAM1 172039Z 01006KT 14/00 A3011 RMK A01 T01360004  RH  040%=      5-min Rain = 0
KAM1 172040Z 03006KT 14/00 A3011 RMK A01 T01370004  RH  040%=      5-min Rain = 0
KAM1 172041Z 03006KT 14/M00 A3011 RMK A01 T01371001  RH  039%=      5-min Rain = 0
KAM1 172042Z 02007KT 14/M00 A3011 RMK A01 T01371001  RH  039%=      5-min Rain = 0
KAM1 172043Z 01004KT 14/M00 A3011 RMK A01 T01361001  RH  039%=      5-min Rain = 0
KAM1 172044Z 35003KT 14/00 A3011 RMK A01 T013600-0  RH  039%=      5-min Rain = 0
KAM1 172045Z 35003KT 14/M00 A3011 RMK A01 T01361001  RH  039%=      5-min Rain = 0
KAM1 172046Z 03003KT 14/00 A3011 RMK A01 T01370001  RH  039%=      5-min Rain = 0
KAM1 172047Z 04001KT 14/M00 A3011 RMK A01 T01381002  RH  038%=      5-min Rain = 0
KAM1 172048Z 36004KT 14/M00 A3011 RMK A01 T01371001  RH  039%=      5-min Rain = 0
KAM1 172049Z 01004KT 14/M00 A3011 RMK A01 T01371001  RH  039%=      5-min Rain = 0
KAM1 172050Z 03004KT 14/M00 A3011 RMK A01 T01381001  RH  039%=      5-min Rain = 0
KAM1 172051Z 01004KT 14/M00 A3011 RMK A01 T01391002  RH  038%=      5-min Rain = 0
KAM1 172052Z 01004KT 14/M00 A3011 RMK A01 T01381004  RH  037%=      5-min Rain = 0
KAM1 172053Z 01004KT 14/00 A3011 RMK A01 T01390002  RH  039%=      5-min Rain = 0
KAM1 172054Z 36005KT 14/00 A3011 RMK A01 T01420003  RH  039%=      5-min Rain = 0
KAM1 172055Z 36004KT 14/00 A3011 RMK A01 T01430001  RH  038%=      5-min Rain = 0
KAM1 172056Z 36004KT 14/00 A3011 RMK A01 T01420003  RH  039%=      5-min Rain = 0
KAM1 172057Z 01002KT 14/00 A301 RMK A01 T01420002  RH  038%=      5-min Rain = 0
KAM1 172058Z 00001KT 14/00 A301 RMK A01 T01400002  RH  039%=      5-min Rain = 0
KAM1 172059Z 35005KT 14/01 A3011 RMK A01 T01400005  RH  040%=      5-min Rain = 0
KAM1 172100Z 33005KT 14/01 A3011 RMK A01 T01410006  RH  040%=      5-min Rain = 0
KAM1 172101Z 33005KT 14/00 A301 RMK A01 T01410004  RH  039%=      5-min Rain = 0
KAM1 172102Z 35004KT 14/00 A301 RMK A01 T01390004  RH  040%=      5-min Rain = 0
KAM1 172103Z 35002KT 14/01 A3011 RMK A01 T01390005  RH  040%=      5-min Rain = 0
KAM1 172104Z 36002KT 14/00 A3011 RMK A01 T01390004  RH  040%=      5-min Rain = 0
KAM1 172105Z 36001KT 14/00 A3011 RMK A01 T01390003  RH  039%=      5-min Rain = 0
KAM1 172106Z 29001KT 14/00 A3011 RMK A01 T01390004  RH  040%=      5-min Rain = 0
KAM1 172107Z 29002KT 14/00 A3011 RMK A01 T01390002  RH  039%=      5-min Rain = 0
KAM1 172108Z 30003KT 14/00 A3011 RMK A01 T01400002  RH  039%=      5-min Rain = 0
KAM1 172109Z 28006KT 14/00 A301 RMK A01 T01420002  RH  038%=      5-min Rain = 0
KAM1 172110Z 30006KT 14/00 A301 RMK A01 T01430002  RH  038%=      5-min Rain = 0
KAM1 172111Z 29004KT 14/00 A301 RMK A01 T01430001  RH  038%=      5-min Rain = 0
KAM1 172112Z 31005KT 14/00 A301 RMK A01 T01430001  RH  038%=      5-min Rain = 0
KAM1 172113Z 31004KT 14/00 A301 RMK A01 T01430003  RH  038%=      5-min Rain = 0
KAM1 172114Z 35004KT 14/01 A301 RMK A01 T01440005  RH  039%=      5-min Rain = 0
KAM1 172115Z 34006KT 15/01 A301 RMK A01 T01450005  RH  039%=      5-min Rain = 0
KAM1 172116Z 01004KT 14/00 A301 RMK A01 T01440002  RH  038%=      5-min Rain = 0
KAM1 172117Z 02004KT 14/00 A301 RMK A01 T014300-0  RH  037%=      5-min Rain = 0
KAM1 172118Z 02004KT 14/M00 A301 RMK A01 T01431003  RH  037%=      5-min Rain = 0
KAM1 172119Z 03004KT 14/M01 A301 RMK A01 T01421005  RH  036%=      5-min Rain = 0
KAM1 172120Z 03005KT 14/M00 A301 RMK A01 T01421003  RH  037%=      5-min Rain = 0
KAM1 172121Z 02005KT 14/M00 A301 RMK A01 T01421004  RH  037%=      5-min Rain = 0
KAM1 172122Z 35003KT 14/M00 A301 RMK A01 T01411004  RH  037%=      5-min Rain = 0
KAM1 172123Z 35002KT 14/M00 A301 RMK A01 T01411001  RH  038%=      5-min Rain = 0
KAM1 172124Z 01002KT 14/M00 A301 RMK A01 T01411001  RH  038%=      5-min Rain = 0
KAM1 172125Z 01002KT 14/00 A301 RMK A01 T01410000  RH  038%=      5-min Rain = 0
KAM1 172126Z 32002KT 14/00 A301 RMK A01 T01420003  RH  039%=      5-min Rain = 0
KAM1 172127Z 35004KT 14/00 A301 RMK A01 T01430002  RH  038%=      5-min Rain = 0
KAM1 172128Z 00000KT 14/00 A301 RMK A01 T01430001  RH  038%=      5-min Rain = 0
KAM1 172129Z 00000KT 14/00 A301 RMK A01 T01430000  RH  038%=      5-min Rain = 0
KAM1 172130Z 30002KT 14/00 A301 RMK A01 T01430001  RH  038%=      5-min Rain = 0
KAM1 172131Z 33005KT 14/00 A301 RMK A01 T01440001  RH  038%=      5-min Rain = 0
KAM1 172132Z 34005KT 14/00 A301 RMK A01 T01430001  RH  038%=      5-min Rain = 0
KAM1 172133Z 33005KT 14/00 A301 RMK A01 T01420000  RH  038%=      5-min Rain = 0
KAM1 172134Z 32004KT 14/00 A301 RMK A01 T01410000  RH  038%=      5-min Rain = 0
KAM1 172135Z 31003KT 14/M00 A301 RMK A01 T01401001  RH  038%=      5-min Rain = 0
KAM1 172136Z 30004KT 14/00 A301 RMK A01 T014000-0  RH  038%=      5-min Rain = 0
KAM1 172137Z 30003KT 14/M00 A301 RMK A01 T01401001  RH  038%=      5-min Rain = 0
KAM1 172138Z 30002KT 14/M00 A301 RMK A01 T01401002  RH  038%=      5-min Rain = 0
KAM1 172139Z 30001KT 14/00 A301 RMK A01 T01410001  RH  038%=      5-min Rain = 0
KAM1 172140Z 26002KT 14/00 A301 RMK A01 T014300-0  RH  038%=      5-min Rain = 0
KAM1 172141Z 26003KT 14/M00 A301 RMK A01 T01441002  RH  037%=      5-min Rain = 0
KAM1 172142Z 26002KT 14/M01 A301 RMK A01 T01441006  RH  036%=      5-min Rain = 0
KAM1 172143Z 27001KT 15/M00 A301 RMK A01 T01451004  RH  036%=      5-min Rain = 0
KAM1 172144Z 27002KT 15/M01 A301 RMK A01 T01451005  RH  036%=      5-min Rain = 0
KAM1 172145Z 28002KT 15/M01 A301 RMK A01 T01461005  RH  036%=      5-min Rain = 0
KAM1 172146Z 34003KT 15/M00 A301 RMK A01 T01461003  RH  036%=      5-min Rain = 0
KAM1 172147Z 33004KT 15/M00 A301 RMK A01 T01461003  RH  036%=      5-min Rain = 0
KAM1 172148Z 35002KT 15/M00 A301 RMK A01 T01461003  RH  036%=      5-min Rain = 0
KAM1 172149Z 01004KT 15/M00 A301 RMK A01 T01451003  RH  036%=      5-min Rain = 0
KAM1 172150Z 02003KT 14/M00 A301 RMK A01 T01441004  RH  036%=      5-min Rain = 0
KAM1 172151Z 01002KT 14/M01 A301 RMK A01 T01421005  RH  036%=      5-min Rain = 0
KAM1 172152Z 01005KT 14/M00 A301 RMK A01 T01421004  RH  037%=      5-min Rain = 0
KAM1 172153Z 00005KT 14/M01 A301 RMK A01 T01421005  RH  037%=      5-min Rain = 0
KAM1 172154Z 35003KT 14/M01 A301 RMK A01 T01411005  RH  037%=      5-min Rain = 0
KAM1 172155Z 34002KT 14/M00 A301 RMK A01 T01421004  RH  037%=      5-min Rain = 0
KAM1 172156Z 32001KT 14/M01 A301 RMK A01 T01421007  RH  036%=      5-min Rain = 0
KAM1 172157Z 01002KT 14/M01 A301 RMK A01 T01421007  RH  036%=      5-min Rain = 0
KAM1 172158Z 02001KT 14/M01 A301 RMK A01 T01421007  RH  036%=      5-min Rain = 0
KAM1 172159Z 00000KT 14/M01 A301 RMK A01 T01411006  RH  036%=      5-min Rain = 0
KAM1 172200Z 29001KT 14/M01 A301 RMK A01 T01421006  RH  036%=      5-min Rain = 0
KAM1 172201Z 01001KT 14/M01 A301 RMK A01 T01431006  RH  036%=      5-min Rain = 0
KAM1 172202Z 01002KT 14/M01 A301 RMK A01 T01431006  RH  036%=      5-min Rain = 0
KAM1 172203Z 34000KT 14/M01 A301 RMK A01 T01431006  RH  036%=      5-min Rain = 0
KAM1 172204Z 04000KT 14/M00 A301 RMK A01 T01441003  RH  036%=      5-min Rain = 0
KAM1 172205Z 02001KT 15/M00 A301 RMK A01 T01461002  RH  036%=      5-min Rain = 0
KAM1 172206Z 03001KT 15/M00 A301 RMK A01 T01471003  RH  036%=      5-min Rain = 0
KAM1 172207Z 02002KT 15/M01 A301 RMK A01 T01461006  RH  035%=      5-min Rain = 0
KAM1 172208Z 33001KT 15/M01 A3011 RMK A01 T01451005  RH  036%=      5-min Rain = 0
KAM1 172209Z 01001KT 14/M00 A3011 RMK A01 T01441003  RH  036%=      5-min Rain = 0
KAM1 172210Z 35003KT 15/M01 A3011 RMK A01 T01451005  RH  036%=      5-min Rain = 0
KAM1 172211Z 34003KT 14/M01 A301 RMK A01 T01441006  RH  036%=      5-min Rain = 0
KAM1 172212Z 34003KT 14/M01 A301 RMK A01 T01431007  RH  036%=      5-min Rain = 0
KAM1 172213Z 33002KT 14/M01 A301 RMK A01 T01421009  RH  035%=      5-min Rain = 0
KAM1 172214Z 32003KT 14/M01 A301 RMK A01 T01421009  RH  035%=      5-min Rain = 0
KAM1 172215Z 32002KT 14/M01 A301 RMK A01 T01421010  RH  035%=      5-min Rain = 0
KAM1 172216Z 31002KT 14/M01 A301 RMK A01 T01421010  RH  035%=      5-min Rain = 0
KAM1 172217Z 29002KT 14/M01 A301 RMK A01 T01421007  RH  036%=      5-min Rain = 0
KAM1 172218Z 29002KT 14/M01 A301 RMK A01 T01431009  RH  035%=      5-min Rain = 0
KAM1 172219Z 29002KT 14/M01 A301 RMK A01 T01441009  RH  035%=      5-min Rain = 0
KAM1 172220Z 30002KT 14/M01 A3011 RMK A01 T01441007  RH  035%=      5-min Rain = 0
KAM1 172221Z 29001KT 14/M01 A301 RMK A01 T01441006  RH  035%=      5-min Rain = 0
KAM1 172222Z 29001KT 15/M01 A301 RMK A01 T01451006  RH  035%=      5-min Rain = 0
KAM1 172223Z 30002KT 15/M01 A301 RMK A01 T01461008  RH  035%=      5-min Rain = 0
KAM1 172224Z 34004KT 15/M01 A301 RMK A01 T01461009  RH  035%=      5-min Rain = 0
KAM1 172225Z 35003KT 15/M01 A3011 RMK A01 T01461008  RH  035%=      5-min Rain = 0
KAM1 172226Z 33003KT 15/M01 A3011 RMK A01 T01451007  RH  035%=      5-min Rain = 0
KAM1 172227Z 33003KT 14/M01 A3011 RMK A01 T01441009  RH  035%=      5-min Rain = 0
KAM1 172228Z 33002KT 14/M01 A3011 RMK A01 T01431010  RH  035%=      5-min Rain = 0
KAM1 172229Z 33003KT 14/M01 A3011 RMK A01 T01421010  RH  035%=      5-min Rain = 0
KAM1 172230Z 32002KT 14/M01 A3011 RMK A01 T01421009  RH  035%=      5-min Rain = 0
KAM1 172231Z 32001KT 14/M01 A3011 RMK A01 T01421008  RH  036%=      5-min Rain = 0
KAM1 172232Z 32002KT 14/M01 A3011 RMK A01 T01421010  RH  035%=      5-min Rain = 0
KAM1 172233Z 32003KT 14/M01 A3011 RMK A01 T01421009  RH  035%=      5-min Rain = 0
KAM1 172234Z 04002KT 14/M01 A3011 RMK A01 T01431009  RH  035%=      5-min Rain = 0
KAM1 172235Z 03003KT 14/M01 A3011 RMK A01 T01431010  RH  035%=      5-min Rain = 0
KAM1 172236Z 01003KT 14/M01 A3011 RMK A01 T01421009  RH  035%=      5-min Rain = 0
KAM1 172237Z 35002KT 14/M01 A3011 RMK A01 T01421009  RH  035%=      5-min Rain = 0
KAM1 172238Z 01003KT 14/M01 A3011 RMK A01 T01411008  RH  036%=      5-min Rain = 0
KAM1 172239Z 00002KT 14/M01 A3011 RMK A01 T01411008  RH  036%=      5-min Rain = 0
KAM1 172240Z 01002KT 14/M01 A3011 RMK A01 T01411006  RH  036%=      5-min Rain = 0
KAM1 172241Z 35003KT 14/M01 A3011 RMK A01 T01411006  RH  037%=      5-min Rain = 0
KAM1 172242Z 34004KT 14/M01 A3011 RMK A01 T01411006  RH  036%=      5-min Rain = 0
KAM1 172243Z 33003KT 14/M01 A3011 RMK A01 T01411006  RH  036%=      5-min Rain = 0
KAM1 172244Z 35003KT 14/M01 A3011 RMK A01 T01411005  RH  037%=      5-min Rain = 0
KAM1 172245Z 36003KT 14/M00 A3011 RMK A01 T01401004  RH  037%=      5-min Rain = 0
KAM1 172246Z 34002KT 14/M01 A3011 RMK A01 T01401005  RH  037%=      5-min Rain = 0
KAM1 172247Z 34002KT 14/M01 A3011 RMK A01 T01401006  RH  037%=      5-min Rain = 0
KAM1 172248Z 34002KT 14/M01 A3011 RMK A01 T01401007  RH  036%=      5-min Rain = 0
KAM1 172249Z 35002KT 14/M01 A3011 RMK A01 T01401007  RH  036%=      5-min Rain = 0
KAM1 172250Z 02003KT 14/M01 A3011 RMK A01 T01401006  RH  037%=      5-min Rain = 0
KAM1 172251Z 02003KT 14/M01 A3011 RMK A01 T01401007  RH  037%=      5-min Rain = 0
KAM1 172252Z 01003KT 14/M01 A3011 RMK A01 T01391007  RH  037%=      5-min Rain = 0
KAM1 172253Z 35001KT 14/M01 A3011 RMK A01 T01381008  RH  036%=      5-min Rain = 0
KAM1 172254Z 00002KT 14/M01 A3011 RMK A01 T01381008  RH  036%=      5-min Rain = 0
KAM1 172255Z 36001KT 14/M01 A3011 RMK A01 T01381007  RH  037%=      5-min Rain = 0
KAM1 172256Z 00000KT 14/M01 A301 RMK A01 T01381008  RH  036%=      5-min Rain = 0
KAM1 172257Z 00000KT 14/M01 A301 RMK A01 T01381008  RH  037%=      5-min Rain = 0
KAM1 172258Z 00000KT 14/M01 A301 RMK A01 T01381007  RH  037%=      5-min Rain = 0
KAM1 172259Z 00000KT 14/M01 A301 RMK A01 T01381008  RH  036%=      5-min Rain = 0
KAM1 172300Z 00000KT 14/M01 A301 RMK A01 T01381009  RH  036%=      5-min Rain = 0
KAM1 172301Z 00000KT 14/M01 A301 RMK A01 T01391008  RH  036%=      5-min Rain = 0
KAM1 172302Z 00000KT 14/M01 A301 RMK A01 T01391009  RH  036%=      5-min Rain = 0
KAM1 172303Z 00000KT 14/M01 A301 RMK A01 T01391009  RH  036%=      5-min Rain = 0
KAM1 172304Z 00000KT 14/M01 A301 RMK A01 T01391009  RH  036%=      5-min Rain = 0
KAM1 172305Z 00000KT 14/M01 A301 RMK A01 T01381010  RH  036%=      5-min Rain = 0
KAM1 172306Z 00000KT 14/M01 A301 RMK A01 T01391009  RH  036%=      5-min Rain = 0
KAM1 172307Z 00000KT 14/M01 A301 RMK A01 T01381009  RH  036%=      5-min Rain = 0
KAM1 172308Z 00000KT 14/M01 A301 RMK A01 T01381009  RH  036%=      5-min Rain = 0
KAM1 172309Z 00000KT 14/M01 A301 RMK A01 T01381010  RH  036%=      5-min Rain = 0
KAM1 172310Z 00000KT 14/M01 A301 RMK A01 T01371010  RH  036%=      5-min Rain = 0
KAM1 172311Z 00000KT 14/M01 A301 RMK A01 T01371010  RH  036%=      5-min Rain = 0
KAM1 172312Z 00000KT 14/M01 A301 RMK A01 T01371009  RH  036%=      5-min Rain = 0
KAM1 172313Z 00000KT 14/M01 A301 RMK A01 T01381009  RH  036%=      5-min Rain = 0
KAM1 172314Z 00000KT 14/M01 A301 RMK A01 T01391009  RH  036%=      5-min Rain = 0
KAM1 172315Z 00000KT 14/M01 A301 RMK A01 T01391009  RH  036%=      5-min Rain = 0
KAM1 172316Z 00000KT 14/M01 A301 RMK A01 T01391009  RH  036%=      5-min Rain = 0
KAM1 172317Z 00000KT 14/M01 A301 RMK A01 T01391010  RH  036%=      5-min Rain = 0
KAM1 172318Z 00000KT 14/M01 A301 RMK A01 T01381010  RH  036%=      5-min Rain = 0
KAM1 172319Z 00000KT 14/M01 A301 RMK A01 T01381010  RH  036%=      5-min Rain = 0
KAM1 172320Z 00000KT 14/M01 A301 RMK A01 T01381010  RH  036%=      5-min Rain = 0
KAM1 172321Z 00000KT 14/M01 A301 RMK A01 T01371010  RH  036%=      5-min Rain = 0
KAM1 172322Z 00000KT 14/M01 A301 RMK A01 T01371011  RH  036%=      5-min Rain = 0
KAM1 172323Z 00000KT 14/M01 A301 RMK A01 T01361011  RH  036%=      5-min Rain = 0
KAM1 172324Z 00000KT 14/M01 A301 RMK A01 T01351011  RH  037%=      5-min Rain = 0
KAM1 172325Z 00000KT 13/M01 A301 RMK A01 T01341011  RH  037%=      5-min Rain = 0
KAM1 172326Z 00000KT 13/M01 A301 RMK A01 T01331011  RH  037%=      5-min Rain = 0
KAM1 172327Z 00000KT 13/M01 A301 RMK A01 T01321010  RH  037%=      5-min Rain = 0
KAM1 172328Z 00000KT 13/M01 A301 RMK A01 T01311011  RH  037%=      5-min Rain = 0
KAM1 172329Z 00000KT 13/M01 A301 RMK A01 T01301011  RH  038%=      5-min Rain = 0
KAM1 172330Z 00000KT 13/M01 A301 RMK A01 T01291012  RH  038%=      5-min Rain = 0
KAM1 172331Z 00000KT 13/M01 A301 RMK A01 T01271011  RH  038%=      5-min Rain = 0
KAM1 172332Z 00000KT 13/M01 A301 RMK A01 T01261011  RH  039%=      5-min Rain = 0
KAM1 172333Z 00000KT 13/M01 A301 RMK A01 T01261011  RH  039%=      5-min Rain = 0
KAM1 172334Z 00000KT 13/M01 A301 RMK A01 T01251011  RH  039%=      5-min Rain = 0
KAM1 172335Z 00000KT 12/M01 A301 RMK A01 T01241011  RH  039%=      5-min Rain = 0
KAM1 172336Z 00000KT 12/M01 A301 RMK A01 T01231011  RH  039%=      5-min Rain = 0
KAM1 172337Z 00000KT 12/M01 A301 RMK A01 T01211011  RH  040%=      5-min Rain = 0
KAM1 172338Z 00000KT 12/M01 A301 RMK A01 T01201011  RH  040%=      5-min Rain = 0
KAM1 172339Z 17000KT 12/M01 A301 RMK A01 T01191011  RH  040%=      5-min Rain = 0
KAM1 172340Z 17001KT 12/M01 A301 RMK A01 T01171011  RH  041%=      5-min Rain = 0
KAM1 172341Z 17002KT 12/M01 A301 RMK A01 T01161011  RH  041%=      5-min Rain = 0
KAM1 172342Z 18002KT 12/M01 A301 RMK A01 T01151011  RH  042%=      5-min Rain = 0
KAM1 172343Z 18002KT 12/M01 A301 RMK A01 T01151011  RH  042%=      5-min Rain = 0
KAM1 172344Z 18002KT 11/M01 A301 RMK A01 T01141010  RH  042%=      5-min Rain = 0
KAM1 172345Z 19002KT 11/M01 A301 RMK A01 T01131010  RH  042%=      5-min Rain = 0
KAM1 172346Z 19003KT 11/M01 A301 RMK A01 T01111012  RH  042%=      5-min Rain = 0
KAM1 172347Z 20003KT 11/M01 A301 RMK A01 T01091013  RH  043%=      5-min Rain = 0
KAM1 172348Z 20003KT 11/M01 A301 RMK A01 T01091012  RH  043%=      5-min Rain = 0
KAM1 172349Z 21003KT 11/M01 A301 RMK A01 T01091012  RH  043%=      5-min Rain = 0
KAM1 172350Z 21003KT 11/M01 A301 RMK A01 T01081014  RH  043%=      5-min Rain = 0
KAM1 172351Z 21004KT 11/M02 A301 RMK A01 T01051015  RH  043%=      5-min Rain = 0
KAM1 172352Z 20004KT 10/M02 A301 RMK A01 T01031015  RH  044%=      5-min Rain = 0
KAM1 172353Z 20004KT 10/M01 A301 RMK A01 T01021014  RH  044%=      5-min Rain = 0
KAM1 172354Z 20004KT 10/M01 A301 RMK A01 T01001014  RH  045%=      5-min Rain = 0
KAM1 172355Z 20004KT 10/M02 A301 RMK A01 T00981015  RH  045%=      5-min Rain = 0
KAM1 172356Z 19003KT 10/M02 A301 RMK A01 T00951016  RH  046%=      5-min Rain = 0
KAM1 172357Z 19003KT 09/M02 A301 RMK A01 T00931016  RH  046%=      5-min Rain = 0
KAM1 172358Z 19003KT 09/M02 A301 RMK A01 T00901016  RH  047%=      5-min Rain = 0
KAM1 172359Z 19003KT 09/M02 A301 RMK A01 T00881015  RH  048%=      5-min Rain = 0
KAM1 180000Z 19003KT 09/M02 A301 RMK A01 T00871015  RH  049%=      5-min Rain = 0
KAM1 180001Z 20003KT 09/M02 A301 RMK A01 T00851015  RH  049%=      5-min Rain = 0
KAM1 180002Z 19002KT 08/M01 A301 RMK A01 T00841014  RH  050%=      5-min Rain = 0
KAM1 180003Z 20003KT 08/M01 A301 RMK A01 T00841013  RH  050%=      5-min Rain = 0
KAM1 180004Z 21003KT 09/M01 A301 RMK A01 T00851011  RH  051%=      5-min Rain = 0
KAM1 180005Z 22003KT 09/M01 A301 RMK A01 T00871010  RH  050%=      5-min Rain = 0
KAM1 180006Z 22003KT 09/M01 A301 RMK A01 T00881010  RH  050%=      5-min Rain = 0
KAM1 180007Z 23003KT 09/M01 A301 RMK A01 T00901011  RH  049%=      5-min Rain = 0
KAM1 180008Z 23003KT 09/M01 A301 RMK A01 T00871013  RH  049%=      5-min Rain = 0
KAM1 180009Z 23002KT 09/M01 A301 RMK A01 T00851013  RH  050%=      5-min Rain = 0
KAM1 180010Z 22002KT 08/M01 A301 RMK A01 T00841011  RH  051%=      5-min Rain = 0
KAM1 180011Z 22002KT 09/M01 A301 RMK A01 T00861010  RH  051%=      5-min Rain = 0
KAM1 180012Z 21002KT 09/M01 A301 RMK A01 T00871010  RH  051%=      5-min Rain = 0
KAM1 180013Z 21002KT 09/M01 A301 RMK A01 T00871008  RH  051%=      5-min Rain = 0
KAM1 180014Z 20002KT 09/M01 A301 RMK A01 T00911006  RH  051%=      5-min Rain = 0
KAM1 180015Z 20002KT 09/M01 A3011 RMK A01 T00921008  RH  050%=      5-min Rain = 0
KAM1 180016Z 20002KT 09/M01 A301 RMK A01 T00921008  RH  050%=      5-min Rain = 0
KAM1 180017Z 21002KT 09/M01 A301 RMK A01 T00911007  RH  050%=      5-min Rain = 0
KAM1 180018Z 21002KT 09/M01 A301 RMK A01 T00921007  RH  050%=      5-min Rain = 0
KAM1 180019Z 21002KT 09/M01 A301 RMK A01 T00941006  RH  050%=      5-min Rain = 0
KAM1 180020Z 21002KT 09/M01 A301 RMK A01 T00941007  RH  049%=      5-min Rain = 0
KAM1 180021Z 21002KT 09/M01 A301 RMK A01 T00941007  RH  049%=      5-min Rain = 0
KAM1 180022Z 21002KT 09/M01 A301 RMK A01 T00931007  RH  049%=      5-min Rain = 0
KAM1 180023Z 21002KT 09/M01 A301 RMK A01 T00911008  RH  050%=      5-min Rain = 0
KAM1 180024Z 21002KT 09/M01 A301 RMK A01 T00891009  RH  050%=      5-min Rain = 0
KAM1 180025Z 22003KT 09/M01 A301 RMK A01 T00871009  RH  051%=      5-min Rain = 0
KAM1 180026Z 22003KT 09/M01 A301 RMK A01 T00871009  RH  051%=      5-min Rain = 0
KAM1 180027Z 21003KT 09/M01 A3011 RMK A01 T00861008  RH  051%=      5-min Rain = 0
KAM1 180028Z 21002KT 09/M01 A3011 RMK A01 T00861008  RH  052%=      5-min Rain = 0
KAM1 180029Z 22002KT 09/M01 A3011 RMK A01 T00851008  RH  052%=      5-min Rain = 0
KAM1 180030Z 23002KT 09/M01 A3011 RMK A01 T00851008  RH  052%=      5-min Rain = 0
KAM1 180031Z 23003KT 09/M01 A3011 RMK A01 T00851008  RH  052%=      5-min Rain = 0
KAM1 180032Z 24003KT 08/M01 A3011 RMK A01 T00841008  RH  052%=      5-min Rain = 0
KAM1 180033Z 24002KT 08/M01 A3011 RMK A01 T00841008  RH  052%=      5-min Rain = 0
KAM1 180034Z 25003KT 08/M01 A3011 RMK A01 T00831008  RH  053%=      5-min Rain = 0
KAM1 180035Z 25003KT 08/M01 A3011 RMK A01 T00821008  RH  053%=      5-min Rain = 0
KAM1 180036Z 25003KT 08/M01 A3011 RMK A01 T00811008  RH  053%=      5-min Rain = 0
KAM1 180037Z 24003KT 08/M01 A3011 RMK A01 T00801009  RH  054%=      5-min Rain = 0
KAM1 180038Z 24003KT 08/M01 A3011 RMK A01 T00791009  RH  054%=      5-min Rain = 0
KAM1 180039Z 25003KT 08/M01 A3011 RMK A01 T00771010  RH  054%=      5-min Rain = 0
KAM1 180040Z 25003KT 08/M01 A3011 RMK A01 T00751011  RH  055%=      5-min Rain = 0
KAM1 180041Z 24004KT 07/M01 A3011 RMK A01 T00731010  RH  055%=      5-min Rain = 0
KAM1 180042Z 24004KT 07/M01 A3011 RMK A01 T00721010  RH  056%=      5-min Rain = 0
KAM1 180043Z 23004KT 07/M01 A3011 RMK A01 T00711010  RH  056%=      5-min Rain = 0
KAM1 180044Z 24004KT 07/M01 A3011 RMK A01 T00691011  RH  057%=      5-min Rain = 0
KAM1 180045Z 24004KT 07/M01 A3011 RMK A01 T00681011  RH  057%=      5-min Rain = 0
KAM1 180046Z 24004KT 07/M01 A3011 RMK A01 T00661012  RH  057%=      5-min Rain = 0
KAM1 180047Z 24004KT 07/M01 A3011 RMK A01 T00651012  RH  058%=      5-min Rain = 0
KAM1 180048Z 24004KT 06/M01 A3011 RMK A01 T00641013  RH  058%=      5-min Rain = 0
KAM1 180049Z 24004KT 06/M01 A3011 RMK A01 T00621014  RH  058%=      5-min Rain = 0
KAM1 180050Z 24004KT 06/M02 A3011 RMK A01 T00601015  RH  059%=      5-min Rain = 0
KAM1 180051Z 24004KT 06/M02 A3011 RMK A01 T00581015  RH  059%=      5-min Rain = 0
KAM1 180052Z 23004KT 06/M01 A3011 RMK A01 T00581014  RH  060%=      5-min Rain = 0
KAM1 180053Z 23004KT 06/M01 A3011 RMK A01 T00581013  RH  060%=      5-min Rain = 0
KAM1 180054Z 24004KT 06/M01 A3011 RMK A01 T00581013  RH  060%=      5-min Rain = 0
KAM1 180055Z 24004KT 06/M01 A3011 RMK A01 T00581014  RH  060%=      5-min Rain = 0
KAM1 180056Z 24003KT 06/M01 A3011 RMK A01 T00571013  RH  060%=      5-min Rain = 0
KAM1 180057Z 24003KT 06/M01 A3011 RMK A01 T00571013  RH  061%=      5-min Rain = 0
KAM1 180058Z 24003KT 06/M02 A3011 RMK A01 T00561015  RH  060%=      5-min Rain = 0
KAM1 180059Z 24003KT 06/M01 A3011 RMK A01 T00551014  RH  061%=      5-min Rain = 0
KAM1 180100Z 23003KT 06/M01 A3011 RMK A01 T00551014  RH  061%=      5-min Rain = 0
KAM1 180101Z 22003KT 05/M01 A3011 RMK A01 T00541014  RH  062%=      5-min Rain = 0
KAM1 180102Z 22003KT 05/M01 A3011 RMK A01 T00541014  RH  062%=      5-min Rain = 0
KAM1 180103Z 22002KT 05/M01 A3011 RMK A01 T00541014  RH  062%=      5-min Rain = 0
KAM1 180104Z 22002KT 05/M02 A3011 RMK A01 T00531015  RH  062%=      5-min Rain = 0
KAM1 180105Z 22002KT 05/M02 A3011 RMK A01 T00521017  RH  061%=      5-min Rain = 0
KAM1 180106Z 23003KT 05/M02 A3011 RMK A01 T00491019  RH  061%=      5-min Rain = 0
KAM1 180107Z 23003KT 05/M02 A3011 RMK A01 T00461022  RH  061%=      5-min Rain = 0
KAM1 180108Z 23003KT 04/M02 A3011 RMK A01 T00421021  RH  064%=      5-min Rain = 0
KAM1 180109Z 23003KT 04/M02 A3011 RMK A01 T00421017  RH  066%=      5-min Rain = 0
KAM1 180110Z 23003KT 04/M02 A3011 RMK A01 T00431015  RH  066%=      5-min Rain = 0
KAM1 180111Z 22003KT 04/M02 A3011 RMK A01 T00441015  RH  066%=      5-min Rain = 0
KAM1 180112Z 22003KT 04/M02 A3011 RMK A01 T00441016  RH  065%=      5-min Rain = 0
KAM1 180113Z 23003KT 04/M02 A3011 RMK A01 T00441018  RH  064%=      5-min Rain = 0
KAM1 180114Z 23004KT 04/M02 A3011 RMK A01 T00441016  RH  065%=      5-min Rain = 0
KAM1 180115Z 23004KT 05/M02 A3011 RMK A01 T00451015  RH  065%=      5-min Rain = 0
KAM1 180116Z 23004KT 05/M01 A3011 RMK A01 T00461014  RH  065%=      5-min Rain = 0
KAM1 180117Z 23004KT 05/M01 A3011 RMK A01 T00461013  RH  066%=      5-min Rain = 0
KAM1 180118Z 23004KT 05/M01 A3011 RMK A01 T00461012  RH  066%=      5-min Rain = 0
KAM1 180119Z 23004KT 05/M01 A3011 RMK A01 T00471012  RH  066%=      5-min Rain = 0
KAM1 180120Z 23004KT 05/M01 A3011 RMK A01 T00471013  RH  065%=      5-min Rain = 0
KAM1 180121Z 23004KT 05/M01 A3011 RMK A01 T00471013  RH  065%=      5-min Rain = 0
KAM1 180122Z 23004KT 05/M01 A3011 RMK A01 T00471012  RH  065%=      5-min Rain = 0
KAM1 180123Z 23004KT 05/M01 A3011 RMK A01 T00471013  RH  065%=      5-min Rain = 0
KAM1 180124Z 20004KT 05/M02 A3011 RMK A01 T00471015  RH  064%=      5-min Rain = 0
KAM1 180125Z 21004KT 04/M02 A3012 RMK A01 T00431021  RH  063%=      5-min Rain = 0
KAM1 180126Z 19004KT 04/M02 A3012 RMK A01 T00401018  RH  066%=      5-min Rain = 0
KAM1 180127Z 19004KT 04/M02 A3011 RMK A01 T00401018  RH  066%=      5-min Rain = 0
KAM1 180128Z 19004KT 04/M02 A3011 RMK A01 T00401017  RH  066%=      5-min Rain = 0
KAM1 180129Z 19004KT 04/M02 A3011 RMK A01 T00401019  RH  065%=      5-min Rain = 0
KAM1 180130Z 19004KT 04/M02 A3011 RMK A01 T00411019  RH  065%=      5-min Rain = 0
KAM1 180131Z 20004KT 04/M02 A3011 RMK A01 T00431020  RH  064%=      5-min Rain = 0
KAM1 180132Z 19004KT 04/M02 A3011 RMK A01 T00441019  RH  064%=      5-min Rain = 0
KAM1 180133Z 19004KT 05/M02 A3011 RMK A01 T00451018  RH  064%=      5-min Rain = 0
KAM1 180134Z 19003KT 05/M02 A3011 RMK A01 T00461018  RH  063%=      5-min Rain = 0
KAM1 180135Z 19003KT 05/M02 A3011 RMK A01 T00471018  RH  063%=      5-min Rain = 0
KAM1 180136Z 19003KT 05/M02 A3011 RMK A01 T00471019  RH  062%=      5-min Rain = 0
KAM1 180137Z 19003KT 05/M02 A3011 RMK A01 T00471020  RH  062%=      5-min Rain = 0
KAM1 180138Z 19002KT 05/M02 A3011 RMK A01 T00461021  RH  062%=      5-min Rain = 0
KAM1 180139Z 19003KT 05/M02 A3011 RMK A01 T00461020  RH  062%=      5-min Rain = 0
KAM1 180140Z 19003KT 05/M02 A3011 RMK A01 T00451019  RH  063%=      5-min Rain = 0
KAM1 180141Z 19004KT 05/M02 A3011 RMK A01 T00451019  RH  063%=      5-min Rain = 0
KAM1 180142Z 20004KT 05/M02 A3011 RMK A01 T00451019  RH  063%=      5-min Rain = 0
KAM1 180143Z 20004KT 05/M02 A3011 RMK A01 T00451019  RH  063%=      5-min Rain = 0
KAM1 180144Z 20004KT 05/M02 A3011 RMK A01 T00451020  RH  063%=      5-min Rain = 0
KAM1 180145Z 20004KT 04/M02 A3011 RMK A01 T00441020  RH  063%=      5-min Rain = 0
KAM1 180146Z 21004KT 04/M02 A3011 RMK A01 T00441021  RH  063%=      5-min Rain = 0
KAM1 180147Z 21004KT 04/M02 A3011 RMK A01 T00431021  RH  063%=      5-min Rain = 0
KAM1 180148Z 21004KT 04/M02 A3011 RMK A01 T00421022  RH  063%=      5-min Rain = 0
KAM1 180149Z 21004KT 04/M02 A3011 RMK A01 T00421022  RH  063%=      5-min Rain = 0
KAM1 180150Z 21004KT 04/M02 A3011 RMK A01 T00411022  RH  063%=      5-min Rain = 0
KAM1 180151Z 21004KT 04/M02 A3011 RMK A01 T00411022  RH  063%=      5-min Rain = 0
KAM1 180152Z 21004KT 04/M02 A3011 RMK A01 T00411022  RH  063%=      5-min Rain = 0
KAM1 180153Z 21004KT 04/M02 A3011 RMK A01 T00411021  RH  064%=      5-min Rain = 0
KAM1 180154Z 21004KT 04/M02 A3011 RMK A01 T00421021  RH  064%=      5-min Rain = 0
KAM1 180155Z 21004KT 04/M02 A3011 RMK A01 T00421018  RH  065%=      5-min Rain = 0
KAM1 180156Z 21003KT 04/M02 A3012 RMK A01 T00431016  RH  065%=      5-min Rain = 0
KAM1 180157Z 21003KT 04/M02 A3012 RMK A01 T00441017  RH  065%=      5-min Rain = 0
KAM1 180158Z 21003KT 04/M02 A3012 RMK A01 T00431020  RH  064%=      5-min Rain = 0
KAM1 180159Z 20001KT 04/M03 A3012 RMK A01 T00391027  RH  062%=      5-min Rain = 0
KAM1 180200Z 13001KT 03/M02 A3012 RMK A01 T00341023  RH  066%=      5-min Rain = 0
KAM1 180201Z 14002KT 04/M02 A3012 RMK A01 T00371016  RH  068%=      5-min Rain = 0
KAM1 180202Z 15002KT 04/M01 A3012 RMK A01 T00411013  RH  068%=      5-min Rain = 0
KAM1 180203Z 13002KT 04/M01 A3012 RMK A01 T00431013  RH  067%=      5-min Rain = 0
KAM1 180204Z 14002KT 04/M01 A3012 RMK A01 T00441014  RH  066%=      5-min Rain = 0
KAM1 180205Z 16002KT 05/M01 A3012 RMK A01 T00451014  RH  066%=      5-min Rain = 0
KAM1 180206Z 17002KT 05/M01 A3012 RMK A01 T00451013  RH  066%=      5-min Rain = 0
KAM1 180207Z 17002KT 05/M01 A3012 RMK A01 T00451014  RH  065%=      5-min Rain = 0
KAM1 180208Z 17002KT 04/M02 A3012 RMK A01 T00441016  RH  065%=      5-min Rain = 0
KAM1 180209Z 16002KT 04/M02 A3012 RMK A01 T00431017  RH  065%=      5-min Rain = 0
KAM1 180210Z 17002KT 04/M01 A3012 RMK A01 T00421014  RH  067%=      5-min Rain = 0
KAM1 180211Z 17003KT 04/M01 A3012 RMK A01 T00421011  RH  069%=      5-min Rain = 0
KAM1 180212Z 17003KT 04/M01 A3012 RMK A01 T00421005  RH  072%=      5-min Rain = 0
KAM1 180213Z 18003KT 04/M00 A3011 RMK A01 T00431002  RH  072%=      5-min Rain = 0
KAM1 180214Z 18003KT 04/M00 A3011 RMK A01 T00431002  RH  072%=      5-min Rain = 0
KAM1 180215Z 18003KT 04/M01 A3011 RMK A01 T00431006  RH  070%=      5-min Rain = 0
KAM1 180216Z 18004KT 04/M01 A3011 RMK A01 T00421010  RH  069%=      5-min Rain = 0
KAM1 180217Z 18004KT 04/M01 A3011 RMK A01 T00411006  RH  071%=      5-min Rain = 0
KAM1 180218Z 18004KT 04/00 A3011 RMK A01 T00410001  RH  075%=      5-min Rain = 0
KAM1 180219Z 18004KT 04/00 A3011 RMK A01 T00410004  RH  077%=      5-min Rain = 0
KAM1 180220Z 18004KT 04/00 A3011 RMK A01 T00410000  RH  075%=      5-min Rain = 0
KAM1 180221Z 19005KT 04/M00 A3011 RMK A01 T00411003  RH  073%=      5-min Rain = 0
KAM1 180222Z 19005KT 04/00 A3011 RMK A01 T00410001  RH  075%=      5-min Rain = 0
KAM1 180223Z 19005KT 04/00 A3011 RMK A01 T00420001  RH  075%=      5-min Rain = 0
KAM1 180224Z 19005KT 04/M00 A3011 RMK A01 T00431001  RH  073%=      5-min Rain = 0
KAM1 180225Z 20005KT 05/M00 A3011 RMK A01 T00451001  RH  072%=      5-min Rain = 0
KAM1 180226Z 19005KT 05/M00 A3011 RMK A01 T00461003  RH  071%=      5-min Rain = 0
KAM1 180227Z 20005KT 05/M01 A3011 RMK A01 T00461005  RH  069%=      5-min Rain = 0
KAM1 180228Z 20005KT 05/M01 A3011 RMK A01 T00451007  RH  069%=      5-min Rain = 0
KAM1 180229Z 20005KT 04/M01 A3011 RMK A01 T00441009  RH  068%=      5-min Rain = 0
KAM1 180230Z 20005KT 04/M01 A3011 RMK A01 T00431011  RH  068%=      5-min Rain = 0
KAM1 180231Z 20005KT 04/M01 A3011 RMK A01 T00421011  RH  068%=      5-min Rain = 0
KAM1 180232Z 21005KT 04/M01 A3011 RMK A01 T00421012  RH  068%=      5-min Rain = 0
KAM1 180233Z 21005KT 04/M01 A3011 RMK A01 T00421013  RH  068%=      5-min Rain = 0
KAM1 180234Z 21005KT 04/M01 A3011 RMK A01 T00411014  RH  068%=      5-min Rain = 0
KAM1 180235Z 21005KT 04/M02 A3011 RMK A01 T00391015  RH  068%=      5-min Rain = 0
KAM1 180236Z 21005KT 04/M02 A3011 RMK A01 T00391015  RH  068%=      5-min Rain = 0
KAM1 180237Z 22005KT 04/M02 A3011 RMK A01 T00391015  RH  068%=      5-min Rain = 0
KAM1 180238Z 22006KT 04/M02 A3011 RMK A01 T00391015  RH  068%=      5-min Rain = 0
KAM1 180239Z 22006KT 04/M02 A3011 RMK A01 T00371017  RH  068%=      5-min Rain = 0
KAM1 180240Z 22005KT 04/M02 A3011 RMK A01 T00351017  RH  069%=      5-min Rain = 0
KAM1 180241Z 22005KT 03/M02 A3011 RMK A01 T00341017  RH  069%=      5-min Rain = 0
KAM1 180242Z 22006KT 03/M02 A3011 RMK A01 T00321017  RH  070%=      5-min Rain = 0
KAM1 180243Z 22006KT 03/M02 A3011 RMK A01 T00311016  RH  071%=      5-min Rain = 0
KAM1 180244Z 23006KT 03/M02 A3011 RMK A01 T00311016  RH  071%=      5-min Rain = 0
KAM1 180245Z 23005KT 03/M02 A3012 RMK A01 T00311015  RH  072%=      5-min Rain = 0
KAM1 180246Z 23005KT 03/M02 A3012 RMK A01 T00311015  RH  072%=      5-min Rain = 0
KAM1 180247Z 23005KT 03/M02 A3012 RMK A01 T00301016  RH  072%=      5-min Rain = 0
KAM1 180248Z 23006KT 03/M02 A3012 RMK A01 T00291016  RH  072%=      5-min Rain = 0
KAM1 180249Z 23006KT 03/M02 A3012 RMK A01 T00291016  RH  073%=      5-min Rain = 0
KAM1 180250Z 23006KT 03/M02 A3012 RMK A01 T00281016  RH  073%=      5-min Rain = 0
KAM1 180251Z 23006KT 03/M02 A3012 RMK A01 T00271017  RH  073%=      5-min Rain = 0
KAM1 180252Z 23006KT 03/M02 A3012 RMK A01 T00251017  RH  073%=      5-min Rain = 0
KAM1 180253Z 23006KT 02/M02 A3012 RMK A01 T00241017  RH  074%=      5-min Rain = 0
KAM1 180254Z 23005KT 02/M02 A3012 RMK A01 T00241016  RH  075%=      5-min Rain = 0
KAM1 180255Z 23005KT 02/M02 A3012 RMK A01 T00241016  RH  075%=      5-min Rain = 0
KAM1 180256Z 23005KT 02/M02 A3012 RMK A01 T00241015  RH  075%=      5-min Rain = 0
KAM1 180257Z 22005KT 02/M02 A3012 RMK A01 T00241016  RH  075%=      5-min Rain = 0
KAM1 180258Z 22005KT 03/M02 A3012 RMK A01 T00251015  RH  075%=      5-min Rain = 0
KAM1 180259Z 22005KT 03/M02 A3012 RMK A01 T00251015  RH  075%=      5-min Rain = 0
KAM1 180300Z 22004KT 02/M02 A3012 RMK A01 T00241015  RH  075%=      5-min Rain = 0
KAM1 180301Z 22004KT 02/M02 A3012 RMK A01 T00241015  RH  075%=      5-min Rain = 0
KAM1 180302Z 22004KT 02/M02 A3012 RMK A01 T00241016  RH  075%=      5-min Rain = 0
KAM1 180303Z 22004KT 02/M02 A3012 RMK A01 T00231016  RH  075%=      5-min Rain = 0
KAM1 180304Z 22004KT 02/M02 A3012 RMK A01 T00221017  RH  075%=      5-min Rain = 0
KAM1 180305Z 23004KT 02/M02 A3012 RMK A01 T00221017  RH  076%=      5-min Rain = 0
KAM1 180306Z 23004KT 02/M02 A3012 RMK A01 T00201019  RH  075%=      5-min Rain = 0
KAM1 180307Z 23004KT 02/M02 A3012 RMK A01 T00191022  RH  074%=      5-min Rain = 0
KAM1 180308Z 23004KT 02/M02 A3012 RMK A01 T00171022  RH  075%=      5-min Rain = 0
KAM1 180309Z 22004KT 02/M02 A3012 RMK A01 T00161019  RH  078%=      5-min Rain = 0
KAM1 180310Z 22004KT 02/M02 A3012 RMK A01 T00161016  RH  079%=      5-min Rain = 0
KAM1 180311Z 22005KT 02/M01 A3012 RMK A01 T00171014  RH  080%=      5-min Rain = 0
KAM1 180312Z 22005KT 02/M01 A3012 RMK A01 T00191013  RH  079%=      5-min Rain = 0
KAM1 180313Z 22005KT 02/M01 A3012 RMK A01 T00211013  RH  078%=      5-min Rain = 0
KAM1 180314Z 22005KT 02/M01 A3012 RMK A01 T00221013  RH  078%=      5-min Rain = 0
KAM1 180315Z 22005KT 02/M01 A3012 RMK A01 T00231014  RH  077%=      5-min Rain = 0
KAM1 180316Z 22006KT 02/M02 A3012 RMK A01 T00231015  RH  076%=      5-min Rain = 0
KAM1 180317Z 22006KT 02/M02 A3012 RMK A01 T00221016  RH  076%=      5-min Rain = 0
KAM1 180318Z 22006KT 02/M02 A3012 RMK A01 T00211016  RH  076%=      5-min Rain = 0
KAM1 180319Z 21006KT 02/M02 A3012 RMK A01 T00211016  RH  076%=      5-min Rain = 0
KAM1 180320Z 21006KT 02/M02 A3012 RMK A01 T00201017  RH  077%=      5-min Rain = 0
KAM1 180321Z 21006KT 02/M02 A3011 RMK A01 T00201017  RH  077%=      5-min Rain = 0
KAM1 180322Z 21005KT 02/M02 A3011 RMK A01 T00191017  RH  077%=      5-min Rain = 0
KAM1 180323Z 21005KT 02/M02 A3011 RMK A01 T00201016  RH  078%=      5-min Rain = 0
KAM1 180324Z 21005KT 02/M02 A3011 RMK A01 T00191015  RH  078%=      5-min Rain = 0
KAM1 180325Z 21005KT 02/M01 A3011 RMK A01 T00201014  RH  078%=      5-min Rain = 0
KAM1 180326Z 21005KT 02/M01 A3011 RMK A01 T00211014  RH  078%=      5-min Rain = 0
KAM1 180327Z 21005KT 02/M02 A3011 RMK A01 T00211015  RH  077%=      5-min Rain = 0
KAM1 180328Z 21005KT 02/M02 A3011 RMK A01 T00211015  RH  077%=      5-min Rain = 0
KAM1 180329Z 21005KT 02/M01 A3011 RMK A01 T00201014  RH  078%=      5-min Rain = 0
KAM1 180330Z 21005KT 02/M01 A3011 RMK A01 T00211013  RH  078%=      5-min Rain = 0
KAM1 180331Z 21005KT 02/M01 A3011 RMK A01 T00211013  RH  078%=      5-min Rain = 0
KAM1 180332Z 21005KT 02/M01 A3011 RMK A01 T00221012  RH  078%=      5-min Rain = 0
KAM1 180333Z 21005KT 02/M01 A3011 RMK A01 T00231011  RH  078%=      5-min Rain = 0
KAM1 180334Z 21005KT 02/M01 A3011 RMK A01 T00241011  RH  078%=      5-min Rain = 0
KAM1 180335Z 21005KT 03/M01 A3011 RMK A01 T00251011  RH  077%=      5-min Rain = 0
KAM1 180336Z 21006KT 03/M01 A3011 RMK A01 T00261011  RH  076%=      5-min Rain = 0
KAM1 180337Z 21006KT 03/M01 A3011 RMK A01 T00261012  RH  076%=      5-min Rain = 0
KAM1 180338Z 21006KT 03/M01 A3011 RMK A01 T00261012  RH  076%=      5-min Rain = 0
KAM1 180339Z 21005KT 03/M01 A3011 RMK A01 T00261012  RH  076%=      5-min Rain = 0
KAM1 180340Z 21006KT 03/M01 A3011 RMK A01 T00271011  RH  076%=      5-min Rain = 0
KAM1 180341Z 21006KT 03/M01 A3011 RMK A01 T00271011  RH  076%=      5-min Rain = 0
KAM1 180342Z 21006KT 03/M01 A3011 RMK A01 T00271012  RH  075%=      5-min Rain = 0
KAM1 180343Z 21006KT 03/M01 A3011 RMK A01 T00271012  RH  075%=      5-min Rain = 0
KAM1 180344Z 21006KT 03/M01 A3011 RMK A01 T00281012  RH  075%=      5-min Rain = 0
KAM1 180345Z 21006KT 03/M01 A3011 RMK A01 T00281012  RH  075%=      5-min Rain = 0
KAM1 180346Z 21007KT 03/M01 A3011 RMK A01 T00271013  RH  075%=      5-min Rain = 0
KAM1 180347Z 21007KT 03/M01 A3011 RMK A01 T00261014  RH  075%=      5-min Rain = 0
KAM1 180348Z 21007KT 02/M02 A3011 RMK A01 T00241015  RH  075%=      5-min Rain = 0
KAM1 180349Z 21007KT 02/M02 A3011 RMK A01 T00231015  RH  076%=      5-min Rain = 0
KAM1 180350Z 21007KT 02/M02 A3011 RMK A01 T00221016  RH  076%=      5-min Rain = 0
KAM1 180351Z 21007KT 02/M02 A3011 RMK A01 T00211015  RH  077%=      5-min Rain = 0
KAM1 180352Z 21007KT 02/M02 A3011 RMK A01 T00211015  RH  077%=      5-min Rain = 0
KAM1 180353Z 21007KT 02/M01 A3011 RMK A01 T00211014  RH  078%=      5-min Rain = 0
KAM1 180354Z 21007KT 02/M01 A3011 RMK A01 T00211013  RH  078%=      5-min Rain = 0
KAM1 180355Z 21006KT 02/M01 A301 RMK A01 T00211012  RH  079%=      5-min Rain = 0
KAM1 180356Z 21006KT 02/M01 A301 RMK A01 T00221011  RH  079%=      5-min Rain = 0
KAM1 180357Z 21006KT 02/M01 A301 RMK A01 T00231010  RH  079%=      5-min Rain = 0
KAM1 180358Z 21006KT 02/M01 A301 RMK A01 T00231010  RH  079%=      5-min Rain = 0
KAM1 180359Z 21006KT 02/M01 A301 RMK A01 T00241010  RH  078%=      5-min Rain = 0
KAM1 180400Z 21006KT 03/M01 A301 RMK A01 T00251010  RH  078%=      5-min Rain = 0
KAM1 180401Z 21006KT 03/M01 A301 RMK A01 T00251010  RH  078%=      5-min Rain = 0
KAM1 180402Z 21006KT 03/M01 A301 RMK A01 T00251010  RH  078%=      5-min Rain = 0
KAM1 180403Z 21006KT 03/M01 A301 RMK A01 T00251010  RH  078%=      5-min Rain = 0
KAM1 180404Z 21006KT 03/M01 A301 RMK A01 T00251010  RH  078%=      5-min Rain = 0
KAM1 180405Z 21006KT 03/M01 A301 RMK A01 T00251010  RH  078%=      5-min Rain = 0
KAM1 180406Z 21006KT 03/M01 A301 RMK A01 T00251010  RH  078%=      5-min Rain = 0
KAM1 180407Z 21006KT 03/M01 A301 RMK A01 T00251010  RH  078%=      5-min Rain = 0
KAM1 180408Z 21005KT 03/M01 A301 RMK A01 T00251010  RH  078%=      5-min Rain = 0
KAM1 180409Z 21005KT 03/M01 A301 RMK A01 T00251011  RH  077%=      5-min Rain = 0
KAM1 180410Z 21005KT 03/M01 A301 RMK A01 T00251011  RH  077%=      5-min Rain = 0
KAM1 180411Z 21005KT 03/M01 A301 RMK A01 T00251011  RH  077%=      5-min Rain = 0
KAM1 180412Z 21005KT 02/M01 A301 RMK A01 T00241012  RH  077%=      5-min Rain = 0
KAM1 180413Z 21005KT 02/M01 A301 RMK A01 T00241012  RH  077%=      5-min Rain = 0
KAM1 180414Z 21005KT 02/M01 A301 RMK A01 T00231012  RH  078%=      5-min Rain = 0
KAM1 180415Z 21005KT 02/M01 A301 RMK A01 T00231012  RH  078%=      5-min Rain = 0
KAM1 180416Z 21005KT 02/M01 A301 RMK A01 T00241011  RH  078%=      5-min Rain = 0
KAM1 180417Z 21005KT 03/M01 A301 RMK A01 T00251011  RH  077%=      5-min Rain = 0
KAM1 180418Z 21005KT 03/M01 A301 RMK A01 T00261011  RH  077%=      5-min Rain = 0
KAM1 180419Z 21005KT 03/M01 A301 RMK A01 T00261012  RH  076%=      5-min Rain = 0
KAM1 180420Z 21005KT 03/M01 A301 RMK A01 T00261012  RH  076%=      5-min Rain = 0
KAM1 180421Z 21005KT 03/M01 A301 RMK A01 T00261011  RH  076%=      5-min Rain = 0
KAM1 180422Z 21005KT 03/M01 A301 RMK A01 T00271011  RH  076%=      5-min Rain = 0
KAM1 180423Z 21005KT 03/M01 A301 RMK A01 T00271012  RH  076%=      5-min Rain = 0
KAM1 180424Z 21005KT 03/M01 A3009 RMK A01 T00261012  RH  076%=      5-min Rain = 0
KAM1 180425Z 21005KT 03/M01 A3009 RMK A01 T00261013  RH  076%=      5-min Rain = 0
KAM1 180426Z 21005KT 03/M01 A3009 RMK A01 T00251013  RH  076%=      5-min Rain = 0
KAM1 180427Z 21005KT 03/M01 A3009 RMK A01 T00251014  RH  076%=      5-min Rain = 0
KAM1 180428Z 21005KT 02/M01 A3009 RMK A01 T00241014  RH  076%=      5-min Rain = 0
KAM1 180429Z 21005KT 02/M02 A3009 RMK A01 T00231015  RH  076%=      5-min Rain = 0
KAM1 180430Z 21005KT 02/M02 A3009 RMK A01 T00221016  RH  076%=      5-min Rain = 0
KAM1 180431Z 21005KT 02/M02 A3009 RMK A01 T00211016  RH  077%=      5-min Rain = 0
KAM1 180432Z 21005KT 02/M02 A3009 RMK A01 T00201016  RH  077%=      5-min Rain = 0
KAM1 180433Z 21005KT 02/M02 A3009 RMK A01 T00191016  RH  078%=      5-min Rain = 0
KAM1 180434Z 21005KT 02/M01 A3009 RMK A01 T00191014  RH  079%=      5-min Rain = 0
KAM1 180435Z 21006KT 02/M01 A3009 RMK A01 T00201013  RH  079%=      5-min Rain = 0
KAM1 180436Z 21006KT 02/M01 A3009 RMK A01 T00201013  RH  079%=      5-min Rain = 0
KAM1 180437Z 21006KT 02/M01 A3009 RMK A01 T00211013  RH  078%=      5-min Rain = 0
KAM1 180438Z 21007KT 02/M01 A3008 RMK A01 T00211013  RH  078%=      5-min Rain = 0
KAM1 180439Z 21007KT 02/M01 A3008 RMK A01 T00211013  RH  078%=      5-min Rain = 0
KAM1 180440Z 21007KT 02/M01 A3008 RMK A01 T00211014  RH  078%=      5-min Rain = 0
KAM1 180441Z 21007KT 02/M01 A3008 RMK A01 T00201014  RH  078%=      5-min Rain = 0
KAM1 180442Z 21006KT 02/M01 A3008 RMK A01 T00201014  RH  078%=      5-min Rain = 0
KAM1 180443Z 21006KT 02/M01 A3008 RMK A01 T00201014  RH  079%=      5-min Rain = 0
KAM1 180444Z 21006KT 02/M01 A3008 RMK A01 T00201013  RH  079%=      5-min Rain = 0
KAM1 180445Z 22006KT 02/M01 A3008 RMK A01 T00191013  RH  079%=      5-min Rain = 0
KAM1 180446Z 22007KT 02/M01 A3008 RMK A01 T00201013  RH  079%=      5-min Rain = 0
KAM1 180447Z 22007KT 02/M01 A3008 RMK A01 T00191013  RH  079%=      5-min Rain = 0
KAM1 180448Z 22007KT 02/M01 A3008 RMK A01 T00181014  RH  079%=      5-min Rain = 0
KAM1 180449Z 22007KT 02/M02 A3008 RMK A01 T00171015  RH  079%=      5-min Rain = 0
KAM1 180450Z 22007KT 02/M01 A3008 RMK A01 T00171014  RH  080%=      5-min Rain = 0
KAM1 180451Z 22007KT 02/M01 A3008 RMK A01 T00171013  RH  080%=      5-min Rain = 0
KAM1 180452Z 22007KT 02/M01 A3008 RMK A01 T00171013  RH  081%=      5-min Rain = 0
KAM1 180453Z 22007KT 02/M01 A3008 RMK A01 T00171012  RH  081%=      5-min Rain = 0
KAM1 180454Z 22007KT 02/M01 A3008 RMK A01 T00171011  RH  081%=      5-min Rain = 0
KAM1 180455Z 22007KT 02/M01 A3008 RMK A01 T00181011  RH  081%=      5-min Rain = 0
KAM1 180456Z 22007KT 02/M01 A3008 RMK A01 T00181010  RH  082%=      5-min Rain = 0
KAM1 180457Z 22006KT 02/M01 A3008 RMK A01 T00191009  RH  082%=      5-min Rain = 0
KAM1 180458Z 22006KT 02/M01 A3008 RMK A01 T00201008  RH  082%=      5-min Rain = 0
KAM1 180459Z 22006KT 02/M01 A3007 RMK A01 T00201008  RH  081%=      5-min Rain = 0
KAM1 180500Z 22006KT 02/M01 A3007 RMK A01 T00201008  RH  081%=      5-min Rain = 0
KAM1 180501Z 22007KT 02/M01 A3007 RMK A01 T00201007  RH  082%=      5-min Rain = 0
KAM1 180502Z 22007KT 02/M01 A3007 RMK A01 T00211007  RH  082%=      5-min Rain = 0
KAM1 180503Z 22008KT 02/M01 A3007 RMK A01 T00211007  RH  082%=      5-min Rain = 0
KAM1 180504Z 22008KT 02/M01 A3007 RMK A01 T00221006  RH  082%=      5-min Rain = 0
KAM1 180505Z 22008KT 02/M01 A3007 RMK A01 T00241005  RH  082%=      5-min Rain = 0
KAM1 180506Z 21008KT 03/M00 A3007 RMK A01 T00251003  RH  082%=      5-min Rain = 0
KAM1 180507Z 21008KT 03/M00 A3007 RMK A01 T00281001  RH  082%=      5-min Rain = 0
KAM1 180508Z 22008KT 03/00 A3007 RMK A01 T00300000  RH  081%=      5-min Rain = 0
KAM1 180509Z 22009KT 03/00 A3007 RMK A01 T00320001  RH  080%=      5-min Rain = 0
KAM1 180510Z 22008KT 03/00 A3007 RMK A01 T00330002  RH  080%=      5-min Rain = 0
KAM1 180511Z 22009KT 03/00 A3007 RMK A01 T00340002  RH  079%=      5-min Rain = 0
KAM1 180512Z 22008KT 04/00 A3006 RMK A01 T00360003  RH  079%=      5-min Rain = 0
KAM1 180513Z 22008KT 04/00 A3007 RMK A01 T00370003  RH  078%=      5-min Rain = 0
KAM1 180514Z 22007KT 04/00 A3007 RMK A01 T00380003  RH  078%=      5-min Rain = 0
KAM1 180515Z 22007KT 04/00 A3007 RMK A01 T00380003  RH  078%=      5-min Rain = 0
KAM1 180516Z 22006KT 04/00 A3007 RMK A01 T00380002  RH  077%=      5-min Rain = 0
KAM1 180517Z 22005KT 04/00 A3007 RMK A01 T00380002  RH  077%=      5-min Rain = 0
KAM1 180518Z 22005KT 04/00 A3007 RMK A01 T00370000  RH  077%=      5-min Rain = 0
KAM1 180519Z 22006KT 04/00 A3006 RMK A01 T003600-0  RH  077%=      5-min Rain = 0
KAM1 180520Z 22006KT 04/M00 A3006 RMK A01 T00351002  RH  077%=      5-min Rain = 0
KAM1 180521Z 22006KT 03/M00 A3006 RMK A01 T00341003  RH  077%=      5-min Rain = 0
KAM1 180522Z 22007KT 03/M00 A3006 RMK A01 T00321004  RH  077%=      5-min Rain = 0
KAM1 180523Z 23007KT 03/M00 A3006 RMK A01 T00311004  RH  078%=      5-min Rain = 0
KAM1 180524Z 22007KT 03/M00 A3006 RMK A01 T00301004  RH  078%=      5-min Rain = 0
KAM1 180525Z 22007KT 03/M00 A3006 RMK A01 T00291004  RH  079%=      5-min Rain = 0
KAM1 180526Z 22007KT 03/M00 A3006 RMK A01 T00291004  RH  079%=      5-min Rain = 0
KAM1 180527Z 22007KT 03/M00 A3006 RMK A01 T00291003  RH  080%=      5-min Rain = 0
KAM1 180528Z 22007KT 03/M00 A3006 RMK A01 T00291003  RH  080%=      5-min Rain = 0
KAM1 180529Z 22007KT 03/M00 A3006 RMK A01 T00281004  RH  080%=      5-min Rain = 0
KAM1 180530Z 22008KT 03/M00 A3006 RMK A01 T00281004  RH  080%=      5-min Rain = 0
KAM1 180531Z 22007KT 03/M00 A3006 RMK A01 T00281004  RH  080%=      5-min Rain = 0
KAM1 180532Z 22007KT 03/M00 A3006 RMK A01 T00281004  RH  080%=      5-min Rain = 0
KAM1 180533Z 22008KT 03/M00 A3006 RMK A01 T00281004  RH  080%=      5-min Rain = 0
KAM1 180534Z 22008KT 03/M00 A3006 RMK A01 T00291004  RH  079%=      5-min Rain = 0
KAM1 180535Z 22007KT 03/M00 A3006 RMK A01 T00291003  RH  079%=      5-min Rain = 0
KAM1 180536Z 22007KT 03/M00 A3006 RMK A01 T00301003  RH  079%=      5-min Rain = 0
KAM1 180537Z 22007KT 03/M00 A3006 RMK A01 T00301004  RH  079%=      5-min Rain = 0
KAM1 180538Z 22007KT 03/M00 A3006 RMK A01 T00291004  RH  079%=      5-min Rain = 0
KAM1 180539Z 23006KT 03/M01 A3006 RMK A01 T00281005  RH  079%=      5-min Rain = 0
KAM1 180540Z 23006KT 03/M01 A3006 RMK A01 T00281005  RH  079%=      5-min Rain = 0
KAM1 180541Z 23007KT 03/M01 A3006 RMK A01 T00271005  RH  079%=      5-min Rain = 0
KAM1 180542Z 23007KT 03/M01 A3006 RMK A01 T00271005  RH  079%=      5-min Rain = 0
KAM1 180543Z 23007KT 03/M01 A3006 RMK A01 T00271006  RH  079%=      5-min Rain = 0
KAM1 180544Z 23007KT 03/M01 A3006 RMK A01 T00261006  RH  079%=      5-min Rain = 0
KAM1 180545Z 23007KT 03/M01 A3006 RMK A01 T00261006  RH  080%=      5-min Rain = 0
KAM1 180546Z 23007KT 03/M01 A3006 RMK A01 T00251006  RH  080%=      5-min Rain = 0
KAM1 180547Z 23007KT 03/M01 A3006 RMK A01 T00251006  RH  080%=      5-min Rain = 0
KAM1 180548Z 23007KT 02/M01 A3006 RMK A01 T00241007  RH  080%=      5-min Rain = 0
KAM1 180549Z 23006KT 02/M01 A3006 RMK A01 T00231008  RH  080%=      5-min Rain = 0
KAM1 180550Z 23006KT 02/M01 A3005 RMK A01 T00231008  RH  080%=      5-min Rain = 0
KAM1 180551Z 23006KT 02/M01 A3006 RMK A01 T00221008  RH  080%=      5-min Rain = 0
KAM1 180552Z 23006KT 02/M01 A3006 RMK A01 T00211009  RH  081%=      5-min Rain = 0
KAM1 180553Z 23006KT 02/M01 A3006 RMK A01 T00211009  RH  081%=      5-min Rain = 0
KAM1 180554Z 23005KT 02/M01 A3006 RMK A01 T00201009  RH  081%=      5-min Rain = 0
KAM1 180555Z 23005KT 02/M01 A3005 RMK A01 T00201010  RH  081%=      5-min Rain = 0
KAM1 180556Z 23005KT 02/M01 A3005 RMK A01 T00191010  RH  081%=      5-min Rain = 0
KAM1 180557Z 23005KT 02/M01 A3005 RMK A01 T00191011  RH  081%=      5-min Rain = 0
KAM1 180558Z 23005KT 02/M01 A3005 RMK A01 T00181011  RH  081%=      5-min Rain = 0
KAM1 180559Z 23005KT 02/M01 A3005 RMK A01 T00181011  RH  082%=      5-min Rain = 0

Page generated in 0.0715 seconds.